Observation data for Wall on 05/24/2020      Previous  Date  Next       Current Mesonet Observations  Soil Data  Daily Summary Page  Observations in Plain Language
KWA1 240500Z 20003KT 22/15 A2983 RMK A01 T02230150  RH  063%=      5-min Rain = 0
KWA1 240501Z 20002KT 22/15 A2983 RMK A01 T02230150  RH  063%=      5-min Rain = 0
KWA1 240502Z 21002KT 22/15 A2983 RMK A01 T02230150  RH  063%=      5-min Rain = 0
KWA1 240503Z 21002KT 22/15 A2983 RMK A01 T02230149  RH  063%=      5-min Rain = 0
KWA1 240504Z 22002KT 22/15 A2982 RMK A01 T02230149  RH  063%=      5-min Rain = 0
KWA1 240505Z 22002KT 22/15 A2982 RMK A01 T02240150  RH  063%=      5-min Rain = 0
KWA1 240506Z 21003KT 22/15 A2983 RMK A01 T02240150  RH  063%=      5-min Rain = 0
KWA1 240507Z 20003KT 22/15 A2983 RMK A01 T02240150  RH  063%=      5-min Rain = 0
KWA1 240508Z 20003KT 22/15 A2983 RMK A01 T02240150  RH  063%=      5-min Rain = 0
KWA1 240509Z 19002KT 22/15 A2983 RMK A01 T02240150  RH  063%=      5-min Rain = 0
KWA1 240510Z 19002KT 22/15 A2983 RMK A01 T02240151  RH  063%=      5-min Rain = 0
KWA1 240511Z 19002KT 22/15 A2983 RMK A01 T02240150  RH  063%=      5-min Rain = 0
KWA1 240512Z 19001KT 22/15 A2983 RMK A01 T02240151  RH  063%=      5-min Rain = 0
KWA1 240513Z 19000KT 22/15 A2983 RMK A01 T02230152  RH  064%=      5-min Rain = 0
KWA1 240514Z 00000KT 22/16 A2983 RMK A01 T02220155  RH  066%=      5-min Rain = 0
KWA1 240515Z 04000KT 22/15 A2983 RMK A01 T02200154  RH  066%=      5-min Rain = 0
KWA1 240516Z 03002KT 22/15 A2983 RMK A01 T02190153  RH  066%=      5-min Rain = 0
KWA1 240517Z 02003KT 22/16 A2983 RMK A01 T02180159  RH  069%=      5-min Rain = 0
KWA1 240518Z 01006KT 21/16 A2983 RMK A01 T02140163  RH  073%=      5-min Rain = 0
KWA1 240519Z 00008KT 21/16 A2984 RMK A01 T02100163  RH  074%=      5-min Rain = 0
KWA1 240520Z 00009KT 21/16 A2984 RMK A01 T02090161  RH  074%=      5-min Rain = 0
KWA1 240521Z 01010KT 21/16 A2984 RMK A01 T02090161  RH  074%=      5-min Rain = 0
KWA1 240522Z 00008KT 21/16 A2984 RMK A01 T02100160  RH  073%=      5-min Rain = 0
KWA1 240523Z 00007KT 21/16 A2984 RMK A01 T02100161  RH  074%=      5-min Rain = 0
KWA1 240524Z 00006KT 21/16 A2985 RMK A01 T02100162  RH  074%=      5-min Rain = 0
KWA1 240525Z 01005KT 21/16 A2985 RMK A01 T02090162  RH  075%=      5-min Rain = 0
KWA1 240526Z 01005KT 21/16 A2985 RMK A01 T02090161  RH  074%=      5-min Rain = 0
KWA1 240527Z 01006KT 21/16 A2985 RMK A01 T02080161  RH  074%=      5-min Rain = 0
KWA1 240528Z 01006KT 21/16 A2985 RMK A01 T02080161  RH  074%=      5-min Rain = 0
KWA1 240529Z 01005KT 21/16 A2986 RMK A01 T02090161  RH  074%=      5-min Rain = 0
KWA1 240530Z 01005KT 21/16 A2986 RMK A01 T02090161  RH  074%=      5-min Rain = 0
KWA1 240531Z 01005KT 21/16 A2986 RMK A01 T02090161  RH  074%=      5-min Rain = 0
KWA1 240532Z 01004KT 21/16 A2986 RMK A01 T02090161  RH  074%=      5-min Rain = 0
KWA1 240533Z 01004KT 21/16 A2985 RMK A01 T02090161  RH  074%=      5-min Rain = 0
KWA1 240534Z 01004KT 21/16 A2985 RMK A01 T02090162  RH  074%=      5-min Rain = 0
KWA1 240535Z 01003KT 21/16 A2985 RMK A01 T02080163  RH  075%=      5-min Rain = 0
KWA1 240536Z 02003KT 21/16 A2985 RMK A01 T02080163  RH  075%=      5-min Rain = 0
KWA1 240537Z 02003KT 21/16 A2985 RMK A01 T02070163  RH  076%=      5-min Rain = 0
KWA1 240538Z 02002KT 21/16 A2985 RMK A01 T02060164  RH  077%=      5-min Rain = 0
KWA1 240539Z 02002KT 21/16 A2985 RMK A01 T02060163  RH  076%=      5-min Rain = 0
KWA1 240540Z 01002KT 21/16 A2985 RMK A01 T02050162  RH  076%=      5-min Rain = 0
KWA1 240541Z 00002KT 21/16 A2985 RMK A01 T02050162  RH  076%=      5-min Rain = 0
KWA1 240542Z 34002KT 21/16 A2985 RMK A01 T02050162  RH  076%=      5-min Rain = 0
KWA1 240543Z 33002KT 21/16 A2985 RMK A01 T02050162  RH  076%=      5-min Rain = 0
KWA1 240544Z 32002KT 21/16 A2985 RMK A01 T02050162  RH  076%=      5-min Rain = 0
KWA1 240545Z 30003KT 20/16 A2985 RMK A01 T02040162  RH  077%=      5-min Rain = 0
KWA1 240546Z 31003KT 20/16 A2985 RMK A01 T02030162  RH  077%=      5-min Rain = 0
KWA1 240547Z 30003KT 20/16 A2985 RMK A01 T02030163  RH  077%=      5-min Rain = 0
KWA1 240548Z 30003KT 20/16 A2986 RMK A01 T02020162  RH  078%=      5-min Rain = 0
KWA1 240549Z 30004KT 20/16 A2986 RMK A01 T02020162  RH  078%=      5-min Rain = 0
KWA1 240550Z 32004KT 20/16 A2986 RMK A01 T02010163  RH  079%=      5-min Rain = 0
KWA1 240551Z 33005KT 20/16 A2986 RMK A01 T02000162  RH  079%=      5-min Rain = 0
KWA1 240552Z 32005KT 20/16 A2986 RMK A01 T02000162  RH  079%=      5-min Rain = 0
KWA1 240553Z 33005KT 20/16 A2985 RMK A01 T01990163  RH  080%=      5-min Rain = 0
KWA1 240554Z 34006KT 20/16 A2985 RMK A01 T01980163  RH  080%=      5-min Rain = 0
KWA1 240555Z 34006KT 20/16 A2985 RMK A01 T01980163  RH  080%=      5-min Rain = 0
KWA1 240556Z 34005KT 20/16 A2985 RMK A01 T01980163  RH  080%=      5-min Rain = 0
KWA1 240557Z 35005KT 20/16 A2985 RMK A01 T01970163  RH  080%=      5-min Rain = 0
KWA1 240558Z 35005KT 20/16 A2985 RMK A01 T01970162  RH  080%=      5-min Rain = 0
KWA1 240559Z 34005KT 20/16 A2986 RMK A01 T01970163  RH  081%=      5-min Rain = 0
KWA1 240600Z 34005KT 20/16 A2986 RMK A01 T01970163  RH  081%=      5-min Rain = 0
KWA1 240601Z 34004KT 20/16 A2986 RMK A01 T01970164  RH  081%=      5-min Rain = 0
KWA1 240602Z 34004KT 20/16 A2986 RMK A01 T01970164  RH  081%=      5-min Rain = 0
KWA1 240603Z 34004KT 20/16 A2986 RMK A01 T01960164  RH  082%=      5-min Rain = 0
KWA1 240604Z 33004KT 20/16 A2986 RMK A01 T01960164  RH  082%=      5-min Rain = 0
KWA1 240605Z 33004KT 20/17 A2986 RMK A01 T01960165  RH  082%=      5-min Rain = 0
KWA1 240606Z 33004KT 20/17 A2986 RMK A01 T01950165  RH  083%=      5-min Rain = 0
KWA1 240607Z 32003KT 20/17 A2986 RMK A01 T01950165  RH  083%=      5-min Rain = 0
KWA1 240608Z 34003KT 19/16 A2986 RMK A01 T01940164  RH  083%=      5-min Rain = 0
KWA1 240609Z 34002KT 19/16 A2986 RMK A01 T01940164  RH  082%=      5-min Rain = 0
KWA1 240610Z 33002KT 19/16 A2986 RMK A01 T01940163  RH  082%=      5-min Rain = 0
KWA1 240611Z 30002KT 20/16 A2986 RMK A01 T01950162  RH  081%=      5-min Rain = 0
KWA1 240612Z 27002KT 20/16 A2986 RMK A01 T01950161  RH  081%=      5-min Rain = 0
KWA1 240613Z 24003KT 20/16 A2986 RMK A01 T01950161  RH  080%=      5-min Rain = 0
KWA1 240614Z 25005KT 19/16 A2986 RMK A01 T01940161  RH  081%=      5-min Rain = 0
KWA1 240615Z 27006KT 19/16 A2986 RMK A01 T01920161  RH  082%=      5-min Rain = 0
KWA1 240616Z 26005KT 19/16 A2986 RMK A01 T01920161  RH  082%=      5-min Rain = 0
KWA1 240617Z 26004KT 19/16 A2987 RMK A01 T01920160  RH  082%=      5-min Rain = 0
KWA1 240618Z 26004KT 19/16 A2986 RMK A01 T01920160  RH  082%=      5-min Rain = 0
KWA1 240619Z 27004KT 19/16 A2986 RMK A01 T01920160  RH  081%=      5-min Rain = 0
KWA1 240620Z 27003KT 19/16 A2986 RMK A01 T01920160  RH  081%=      5-min Rain = 0
KWA1 240621Z 27003KT 19/16 A2986 RMK A01 T01920159  RH  081%=      5-min Rain = 0
KWA1 240622Z 26005KT 19/16 A2987 RMK A01 T01920159  RH  081%=      5-min Rain = 0
KWA1 240623Z 27004KT 19/16 A2987 RMK A01 T01920159  RH  081%=      5-min Rain = 0
KWA1 240624Z 28004KT 19/16 A2987 RMK A01 T01920159  RH  081%=      5-min Rain = 0
KWA1 240625Z 28004KT 19/16 A2987 RMK A01 T01920159  RH  081%=      5-min Rain = 0
KWA1 240626Z 28005KT 19/16 A2987 RMK A01 T01930159  RH  081%=      5-min Rain = 0
KWA1 240627Z 28004KT 19/16 A2987 RMK A01 T01930159  RH  080%=      5-min Rain = 0
KWA1 240628Z 27003KT 19/16 A2987 RMK A01 T01930159  RH  080%=      5-min Rain = 0
KWA1 240629Z 26003KT 19/16 A2987 RMK A01 T01940157  RH  079%=      5-min Rain = 0
KWA1 240630Z 30002KT 20/16 A2987 RMK A01 T01970155  RH  077%=      5-min Rain = 0
KWA1 240631Z 27003KT 20/16 A2987 RMK A01 T01990157  RH  077%=      5-min Rain = 0
KWA1 240632Z 24003KT 20/16 A2987 RMK A01 T01990156  RH  076%=      5-min Rain = 0
KWA1 240633Z 27003KT 20/16 A2987 RMK A01 T02010156  RH  076%=      5-min Rain = 0
KWA1 240634Z 31003KT 20/16 A2987 RMK A01 T02010156  RH  075%=      5-min Rain = 0
KWA1 240635Z 30003KT 20/16 A2987 RMK A01 T02020156  RH  075%=      5-min Rain = 0
KWA1 240636Z 33004KT 20/16 A2987 RMK A01 T02030157  RH  075%=      5-min Rain = 0
KWA1 240637Z 34005KT 20/16 A2987 RMK A01 T02030156  RH  074%=      5-min Rain = 0
KWA1 240638Z 33004KT 20/16 A2987 RMK A01 T02030155  RH  074%=      5-min Rain = 0
KWA1 240639Z 32004KT 20/16 A2987 RMK A01 T02030156  RH  074%=      5-min Rain = 0
KWA1 240640Z 33006KT 20/16 A2987 RMK A01 T02020156  RH  075%=      5-min Rain = 0
KWA1 240641Z 34006KT 20/16 A2987 RMK A01 T02020156  RH  075%=      5-min Rain = 0
KWA1 240642Z 34008KT 20/16 A2986 RMK A01 T02010157  RH  076%=      5-min Rain = 0
KWA1 240643Z 33004KT 20/16 A2987 RMK A01 T02000158  RH  077%=      5-min Rain = 0
KWA1 240644Z 34004KT 20/16 A2987 RMK A01 T01990157  RH  076%=      5-min Rain = 0
KWA1 240645Z 34007KT 20/16 A2987 RMK A01 T01990156  RH  076%=      5-min Rain = 0
KWA1 240646Z 01006KT 20/16 A2987 RMK A01 T02000157  RH  076%=      5-min Rain = 0
KWA1 240647Z 02006KT 20/16 A2987 RMK A01 T02000159  RH  077%=      5-min Rain = 0
KWA1 240648Z 02005KT 20/16 A2987 RMK A01 T01990159  RH  078%=      5-min Rain = 0
KWA1 240649Z 00005KT 20/16 A2987 RMK A01 T01990159  RH  078%=      5-min Rain = 0
KWA1 240650Z 35005KT 20/16 A2987 RMK A01 T01980158  RH  077%=      5-min Rain = 0
KWA1 240651Z 35004KT 20/16 A2987 RMK A01 T01990157  RH  077%=      5-min Rain = 0
KWA1 240652Z 36004KT 20/16 A2987 RMK A01 T02000158  RH  077%=      5-min Rain = 0
KWA1 240653Z 36003KT 20/16 A2986 RMK A01 T02000157  RH  077%=      5-min Rain = 0
KWA1 240654Z 34002KT 20/16 A2986 RMK A01 T02000157  RH  076%=      5-min Rain = 0
KWA1 240655Z 02002KT 20/16 A2986 RMK A01 T02000158  RH  077%=      5-min Rain = 0
KWA1 240656Z 03002KT 20/16 A2986 RMK A01 T02000158  RH  077%=      5-min Rain = 0
KWA1 240657Z 08001KT 20/16 A2986 RMK A01 T01990158  RH  077%=      5-min Rain = 0
KWA1 240658Z 09003KT 20/16 A2986 RMK A01 T01990157  RH  077%=      5-min Rain = 0
KWA1 240659Z 14002KT 20/14 A2986 RMK A01 T02000142  RH  069%=      5-min Rain = 0
KWA1 240700Z 13002KT 21/14 A2986 RMK A01 T02050140  RH  066%=      5-min Rain = 0
KWA1 240701Z 14004KT 21/15 A2986 RMK A01 T02090154  RH  071%=      5-min Rain = 0
KWA1 240702Z 08002KT 21/16 A2986 RMK A01 T02060155  RH  073%=      5-min Rain = 0
KWA1 240703Z 10002KT 20/15 A2986 RMK A01 T02040152  RH  072%=      5-min Rain = 0
KWA1 240704Z 12003KT 21/15 A2986 RMK A01 T02050152  RH  072%=      5-min Rain = 0
KWA1 240705Z 12003KT 21/15 A2986 RMK A01 T02050151  RH  071%=      5-min Rain = 0
KWA1 240706Z 08004KT 21/15 A2986 RMK A01 T02060154  RH  072%=      5-min Rain = 0
KWA1 240707Z 06003KT 20/15 A2986 RMK A01 T02040153  RH  072%=      5-min Rain = 0
KWA1 240708Z 05005KT 20/16 A2986 RMK A01 T02040155  RH  074%=      5-min Rain = 0
KWA1 240709Z 04005KT 20/16 A2986 RMK A01 T02040157  RH  074%=      5-min Rain = 0
KWA1 240710Z 06004KT 20/16 A2986 RMK A01 T02020158  RH  076%=      5-min Rain = 0
KWA1 240711Z 03004KT 20/16 A2986 RMK A01 T02000158  RH  077%=      5-min Rain = 0
KWA1 240712Z 05004KT 20/16 A2986 RMK A01 T01980158  RH  078%=      5-min Rain = 0
KWA1 240713Z 03005KT 20/15 A2986 RMK A01 T01970154  RH  076%=      5-min Rain = 0
KWA1 240714Z 02007KT 20/16 A2986 RMK A01 T01980158  RH  077%=      5-min Rain = 0
KWA1 240715Z 02007KT 20/16 A2986 RMK A01 T01980162  RH  080%=      5-min Rain = 0
KWA1 240716Z 01007KT 20/16 A2986 RMK A01 T01960163  RH  081%=      5-min Rain = 0
KWA1 240717Z 01006KT 19/16 A2986 RMK A01 T01930162  RH  082%=      5-min Rain = 0
KWA1 240718Z 01007KT 19/16 A2986 RMK A01 T01910162  RH  083%=      5-min Rain = 0
KWA1 240719Z 01007KT 19/16 A2986 RMK A01 T01900162  RH  084%=      5-min Rain = 0
KWA1 240720Z 02006KT 19/16 A2986 RMK A01 T01900161  RH  084%=      5-min Rain = 0
KWA1 240721Z 02005KT 19/16 A2986 RMK A01 T01900162  RH  084%=      5-min Rain = 0
KWA1 240722Z 02005KT 19/16 A2986 RMK A01 T01900163  RH  084%=      5-min Rain = 0
KWA1 240723Z 03005KT 19/16 A2986 RMK A01 T01890163  RH  085%=      5-min Rain = 0
KWA1 240724Z 03005KT 19/16 A2986 RMK A01 T01890163  RH  085%=      5-min Rain = 0
KWA1 240725Z 03004KT 19/16 A2986 RMK A01 T01880162  RH  085%=      5-min Rain = 0
KWA1 240726Z 03004KT 19/16 A2986 RMK A01 T01880162  RH  085%=      5-min Rain = 0
KWA1 240727Z 03005KT 19/16 A2986 RMK A01 T01890163  RH  085%=      5-min Rain = 0
KWA1 240728Z 03005KT 19/16 A2986 RMK A01 T01880162  RH  085%=      5-min Rain = 0
KWA1 240729Z 03005KT 19/16 A2986 RMK A01 T01880163  RH  085%=      5-min Rain = 0
KWA1 240730Z 03005KT 19/16 A2986 RMK A01 T01880163  RH  085%=      5-min Rain = 0
KWA1 240731Z 03005KT 19/16 A2986 RMK A01 T01870163  RH  086%=      5-min Rain = 0
KWA1 240732Z 03005KT 19/16 A2986 RMK A01 T01870163  RH  086%=      5-min Rain = 0
KWA1 240733Z 03005KT 19/16 A2986 RMK A01 T01870162  RH  085%=      5-min Rain = 0
KWA1 240734Z 03005KT 19/16 A2986 RMK A01 T01870162  RH  085%=      5-min Rain = 0
KWA1 240735Z 03004KT 19/16 A2986 RMK A01 T01870163  RH  086%=      5-min Rain = 0
KWA1 240736Z 02003KT 19/16 A2986 RMK A01 T01870162  RH  086%=      5-min Rain = 0
KWA1 240737Z 02003KT 19/16 A2986 RMK A01 T01870162  RH  086%=      5-min Rain = 0
KWA1 240738Z 01003KT 19/16 A2986 RMK A01 T01870162  RH  086%=      5-min Rain = 0
KWA1 240739Z 01003KT 19/16 A2986 RMK A01 T01860162  RH  086%=      5-min Rain = 0
KWA1 240740Z 01002KT 19/16 A2986 RMK A01 T01860162  RH  086%=      5-min Rain = 0
KWA1 240741Z 36003KT 19/16 A2986 RMK A01 T01860162  RH  086%=      5-min Rain = 0
KWA1 240742Z 35003KT 19/16 A2986 RMK A01 T01860162  RH  086%=      5-min Rain = 0
KWA1 240743Z 33002KT 19/16 A2986 RMK A01 T01860162  RH  086%=      5-min Rain = 0
KWA1 240744Z 33003KT 19/16 A2985 RMK A01 T01850163  RH  087%=      5-min Rain = 0
KWA1 240745Z 33003KT 19/16 A2985 RMK A01 T01850163  RH  087%=      5-min Rain = 0
KWA1 240746Z 34003KT 18/16 A2985 RMK A01 T01840162  RH  087%=      5-min Rain = 0
KWA1 240747Z 35003KT 18/16 A2985 RMK A01 T01830162  RH  087%=      5-min Rain = 0
KWA1 240748Z 35003KT 18/16 A2986 RMK A01 T01830163  RH  088%=      5-min Rain = 0
KWA1 240749Z 34003KT 18/16 A2986 RMK A01 T01830162  RH  088%=      5-min Rain = 0
KWA1 240750Z 35003KT 18/16 A2985 RMK A01 T01820162  RH  088%=      5-min Rain = 0
KWA1 240751Z 35003KT 18/16 A2985 RMK A01 T01820163  RH  089%=      5-min Rain = 0
KWA1 240752Z 35003KT 18/16 A2985 RMK A01 T01810162  RH  089%=      5-min Rain = 0
KWA1 240753Z 35002KT 18/16 A2986 RMK A01 T01810163  RH  089%=      5-min Rain = 0
KWA1 240754Z 35003KT 18/16 A2985 RMK A01 T01800162  RH  089%=      5-min Rain = 0
KWA1 240755Z 36004KT 18/16 A2985 RMK A01 T01810163  RH  089%=      5-min Rain = 0
KWA1 240756Z 00004KT 18/16 A2985 RMK A01 T01810163  RH  089%=      5-min Rain = 0
KWA1 240757Z 01003KT 18/16 A2985 RMK A01 T01820162  RH  088%=      5-min Rain = 0
KWA1 240758Z 01003KT 18/16 A2986 RMK A01 T01830162  RH  087%=      5-min Rain = 0
KWA1 240759Z 01004KT 18/16 A2985 RMK A01 T01840162  RH  087%=      5-min Rain = 0
KWA1 240800Z 01004KT 18/16 A2985 RMK A01 T01840162  RH  087%=      5-min Rain = 0
KWA1 240801Z 35002KT 18/16 A2985 RMK A01 T01840163  RH  087%=      5-min Rain = 0
KWA1 240802Z 34002KT 18/16 A2985 RMK A01 T01840162  RH  087%=      5-min Rain = 0
KWA1 240803Z 35002KT 18/16 A2985 RMK A01 T01840161  RH  087%=      5-min Rain = 0
KWA1 240804Z 34002KT 18/16 A2985 RMK A01 T01840161  RH  086%=      5-min Rain = 0
KWA1 240805Z 35001KT 18/16 A2985 RMK A01 T01840161  RH  086%=      5-min Rain = 0
KWA1 240806Z 02002KT 18/16 A2985 RMK A01 T01830161  RH  087%=      5-min Rain = 0
KWA1 240807Z 03002KT 18/16 A2985 RMK A01 T01830161  RH  087%=      5-min Rain = 0
KWA1 240808Z 02001KT 18/16 A2985 RMK A01 T01830161  RH  087%=      5-min Rain = 0
KWA1 240809Z 25003KT 18/16 A2986 RMK A01 T01830159  RH  086%=      5-min Rain = 0
KWA1 240810Z 24005KT 18/16 A2986 RMK A01 T01820158  RH  086%=      5-min Rain = 0
KWA1 240811Z 25003KT 18/16 A2986 RMK A01 T01810158  RH  087%=      5-min Rain = 0
KWA1 240812Z 25002KT 18/16 A2986 RMK A01 T01800158  RH  087%=      5-min Rain = 0
KWA1 240813Z 22004KT 18/16 A2986 RMK A01 T01800158  RH  087%=      5-min Rain = 0
KWA1 240814Z 23002KT 18/16 A2986 RMK A01 T01790157  RH  087%=      5-min Rain = 0
KWA1 240815Z 23002KT 18/16 A2985 RMK A01 T01780157  RH  087%=      5-min Rain = 0
KWA1 240816Z 24004KT 18/16 A2986 RMK A01 T01780157  RH  088%=      5-min Rain = 0
KWA1 240817Z 24003KT 18/16 A2986 RMK A01 T01770157  RH  088%=      5-min Rain = 0
KWA1 240818Z 24001KT 18/16 A2985 RMK A01 T01770157  RH  088%=      5-min Rain = 0
KWA1 240819Z 31000KT 18/16 A2985 RMK A01 T01780158  RH  088%=      5-min Rain = 0
KWA1 240820Z 28003KT 18/16 A2985 RMK A01 T01800157  RH  087%=      5-min Rain = 0
KWA1 240821Z 23003KT 18/16 A2985 RMK A01 T01820157  RH  085%=      5-min Rain = 0
KWA1 240822Z 20002KT 18/16 A2985 RMK A01 T01810157  RH  086%=      5-min Rain = 0
KWA1 240823Z 18001KT 18/16 A2985 RMK A01 T01800156  RH  086%=      5-min Rain = 0
KWA1 240824Z 00000KT 18/16 A2985 RMK A01 T01800155  RH  085%=      5-min Rain = 0
KWA1 240825Z 00000KT 18/15 A2985 RMK A01 T01800154  RH  085%=      5-min Rain = 0
KWA1 240826Z 04000KT 18/15 A2985 RMK A01 T01820154  RH  084%=      5-min Rain = 0
KWA1 240827Z 35001KT 18/16 A2985 RMK A01 T01830157  RH  085%=      5-min Rain = 0
KWA1 240828Z 02001KT 18/16 A2985 RMK A01 T01820156  RH  085%=      5-min Rain = 0
KWA1 240829Z 02001KT 18/16 A2985 RMK A01 T01820155  RH  084%=      5-min Rain = 0
KWA1 240830Z 02000KT 18/16 A2985 RMK A01 T01830155  RH  084%=      5-min Rain = 0
KWA1 240831Z 36002KT 18/16 A2985 RMK A01 T01830155  RH  083%=      5-min Rain = 0
KWA1 240832Z 02001KT 18/15 A2985 RMK A01 T01840152  RH  082%=      5-min Rain = 0
KWA1 240833Z 04002KT 19/15 A2985 RMK A01 T01870151  RH  080%=      5-min Rain = 0
KWA1 240834Z 04004KT 19/15 A2985 RMK A01 T01890152  RH  079%=      5-min Rain = 0
KWA1 240835Z 05003KT 19/15 A2985 RMK A01 T01890154  RH  080%=      5-min Rain = 0
KWA1 240836Z 05003KT 19/15 A2985 RMK A01 T01870153  RH  081%=      5-min Rain = 0
KWA1 240837Z 08002KT 19/15 A2985 RMK A01 T01870151  RH  079%=      5-min Rain = 0
KWA1 240838Z 04004KT 19/15 A2985 RMK A01 T01890153  RH  080%=      5-min Rain = 0
KWA1 240839Z 03005KT 19/15 A2985 RMK A01 T01890153  RH  079%=      5-min Rain = 0
KWA1 240840Z 04004KT 19/15 A2984 RMK A01 T01900152  RH  079%=      5-min Rain = 0
KWA1 240841Z 04003KT 19/15 A2985 RMK A01 T01910152  RH  078%=      5-min Rain = 0
KWA1 240842Z 05003KT 19/15 A2985 RMK A01 T01910152  RH  078%=      5-min Rain = 0
KWA1 240843Z 03004KT 19/16 A2984 RMK A01 T01920155  RH  079%=      5-min Rain = 0
KWA1 240844Z 02005KT 19/16 A2984 RMK A01 T01900155  RH  080%=      5-min Rain = 0
KWA1 240845Z 02004KT 19/16 A2984 RMK A01 T01880156  RH  081%=      5-min Rain = 0
KWA1 240846Z 02003KT 19/16 A2985 RMK A01 T01860155  RH  082%=      5-min Rain = 0
KWA1 240847Z 01003KT 19/16 A2985 RMK A01 T01860155  RH  082%=      5-min Rain = 0
KWA1 240848Z 01003KT 19/15 A2985 RMK A01 T01860154  RH  082%=      5-min Rain = 0
KWA1 240849Z 01003KT 19/15 A2985 RMK A01 T01860154  RH  082%=      5-min Rain = 0
KWA1 240850Z 01004KT 19/15 A2984 RMK A01 T01850154  RH  082%=      5-min Rain = 0
KWA1 240851Z 01005KT 18/16 A2984 RMK A01 T01840155  RH  083%=      5-min Rain = 0
KWA1 240852Z 02006KT 18/16 A2984 RMK A01 T01830155  RH  084%=      5-min Rain = 0
KWA1 240853Z 02006KT 18/16 A2984 RMK A01 T01830156  RH  084%=      5-min Rain = 0
KWA1 240854Z 02006KT 18/16 A2984 RMK A01 T01820156  RH  085%=      5-min Rain = 0
KWA1 240855Z 03007KT 18/16 A2984 RMK A01 T01810156  RH  085%=      5-min Rain = 0
KWA1 240856Z 02008KT 18/16 A2984 RMK A01 T01800157  RH  086%=      5-min Rain = 0
KWA1 240857Z 02009KT 18/16 A2984 RMK A01 T01790157  RH  087%=      5-min Rain = 0
KWA1 240858Z 03008KT 18/16 A2984 RMK A01 T01780157  RH  087%=      5-min Rain = 0
KWA1 240859Z 02008KT 18/16 A2985 RMK A01 T01780157  RH  088%=      5-min Rain = 0
KWA1 240900Z 03009KT 18/16 A2984 RMK A01 T01780158  RH  088%=      5-min Rain = 0
KWA1 240901Z 03009KT 18/16 A2984 RMK A01 T01780158  RH  088%=      5-min Rain = 0
KWA1 240902Z 03008KT 18/16 A2984 RMK A01 T01780159  RH  089%=      5-min Rain = 0
KWA1 240903Z 03007KT 18/16 A2985 RMK A01 T01780160  RH  089%=      5-min Rain = 0
KWA1 240904Z 04006KT 18/16 A2985 RMK A01 T01780161  RH  090%=      5-min Rain = 0
KWA1 240905Z 03006KT 18/16 A2985 RMK A01 T01780162  RH  090%=      5-min Rain = 0
KWA1 240906Z 03006KT 18/16 A2984 RMK A01 T01780162  RH  090%=      5-min Rain = 0
KWA1 240907Z 03004KT 18/16 A2985 RMK A01 T01780163  RH  091%=      5-min Rain = 0
KWA1 240908Z 03003KT 18/16 A2985 RMK A01 T01780163  RH  091%=      5-min Rain = 0
KWA1 240909Z 04003KT 18/16 A2985 RMK A01 T01770163  RH  091%=      5-min Rain = 0
KWA1 240910Z 04004KT 18/16 A2985 RMK A01 T01770163  RH  091%=      5-min Rain = 0
KWA1 240911Z 05003KT 18/16 A2984 RMK A01 T01770163  RH  091%=      5-min Rain = 0
KWA1 240912Z 06003KT 18/16 A2984 RMK A01 T01760162  RH  091%=      5-min Rain = 0
KWA1 240913Z 06002KT 18/16 A2984 RMK A01 T01750161  RH  091%=      5-min Rain = 0
KWA1 240914Z 06002KT 17/16 A2984 RMK A01 T01740161  RH  092%=      5-min Rain = 0
KWA1 240915Z 05003KT 17/16 A2984 RMK A01 T01740161  RH  092%=      5-min Rain = 0
KWA1 240916Z 05003KT 17/16 A2984 RMK A01 T01740161  RH  092%=      5-min Rain = 0
KWA1 240917Z 04003KT 17/16 A2984 RMK A01 T01730162  RH  093%=      5-min Rain = 0
KWA1 240918Z 04003KT 17/16 A2984 RMK A01 T01730162  RH  093%=      5-min Rain = 0
KWA1 240919Z 03002KT 17/16 A2984 RMK A01 T01730162  RH  093%=      5-min Rain = 0
KWA1 240920Z 03003KT 17/16 A2984 RMK A01 T01730162  RH  093%=      5-min Rain = 0
KWA1 240921Z 04003KT 17/16 A2984 RMK A01 T01740163  RH  093%=      5-min Rain = 0
KWA1 240922Z 04005KT 17/16 A2984 RMK A01 T01740162  RH  093%=      5-min Rain = 0
KWA1 240923Z 04004KT 17/16 A2984 RMK A01 T01730162  RH  093%=      5-min Rain = 0
KWA1 240924Z 04004KT 17/16 A2984 RMK A01 T01730163  RH  094%=      5-min Rain = 0
KWA1 240925Z 04003KT 17/16 A2984 RMK A01 T01740163  RH  093%=      5-min Rain = 0
KWA1 240926Z 05003KT 17/16 A2984 RMK A01 T01740163  RH  093%=      5-min Rain = 0
KWA1 240927Z 06003KT 17/16 A2985 RMK A01 T01740164  RH  094%=      5-min Rain = 0
KWA1 240928Z 05003KT 17/16 A2984 RMK A01 T01740164  RH  094%=      5-min Rain = 0
KWA1 240929Z 05003KT 18/16 A2984 RMK A01 T01750164  RH  094%=      5-min Rain = 0
KWA1 240930Z 04002KT 18/16 A2984 RMK A01 T01750164  RH  094%=      5-min Rain = 0
KWA1 240931Z 06001KT 18/16 A2985 RMK A01 T01750164  RH  094%=      5-min Rain = 0
KWA1 240932Z 05002KT 17/16 A2984 RMK A01 T01740163  RH  093%=      5-min Rain = 0
KWA1 240933Z 04003KT 17/16 A2984 RMK A01 T01740164  RH  094%=      5-min Rain = 0
KWA1 240934Z 06002KT 17/16 A2984 RMK A01 T01740164  RH  094%=      5-min Rain = 0
KWA1 240935Z 07000KT 17/16 A2984 RMK A01 T01730163  RH  094%=      5-min Rain = 0
KWA1 240936Z 00000KT 17/16 A2984 RMK A01 T01730163  RH  094%=      5-min Rain = 0
KWA1 240937Z 07000KT 17/16 A2984 RMK A01 T01720163  RH  094%=      5-min Rain = 0
KWA1 240938Z 05001KT 17/16 A2984 RMK A01 T01730164  RH  094%=      5-min Rain = 0
KWA1 240939Z 04001KT 17/16 A2984 RMK A01 T01720164  RH  095%=      5-min Rain = 0
KWA1 240940Z 05001KT 17/16 A2984 RMK A01 T01720164  RH  095%=      5-min Rain = 0
KWA1 240941Z 07001KT 17/17 A2984 RMK A01 T01730165  RH  095%=      5-min Rain = 0
KWA1 240942Z 12001KT 17/16 A2984 RMK A01 T01720164  RH  095%=      5-min Rain = 0
KWA1 240943Z 09001KT 17/16 A2984 RMK A01 T01720163  RH  094%=      5-min Rain = 0
KWA1 240944Z 08000KT 17/16 A2984 RMK A01 T01720164  RH  095%=      5-min Rain = 0
KWA1 240945Z 16001KT 17/16 A2984 RMK A01 T01720164  RH  095%=      5-min Rain = 0
KWA1 240946Z 16002KT 17/16 A2984 RMK A01 T01730164  RH  095%=      5-min Rain = 0
KWA1 240947Z 12001KT 17/16 A2984 RMK A01 T01720163  RH  094%=      5-min Rain = 0
KWA1 240948Z 09002KT 17/16 A2984 RMK A01 T01720163  RH  095%=      5-min Rain = 0
KWA1 240949Z 08002KT 17/16 A2984 RMK A01 T01720164  RH  095%=      5-min Rain = 0
KWA1 240950Z 09002KT 17/16 A2984 RMK A01 T01720164  RH  095%=      5-min Rain = 0
KWA1 240951Z 10003KT 17/16 A2985 RMK A01 T01720161  RH  093%=      5-min Rain = 0
KWA1 240952Z 08004KT 17/16 A2985 RMK A01 T01700160  RH  094%=      5-min Rain = 0
KWA1 240953Z 08004KT 17/16 A2985 RMK A01 T01710163  RH  095%=      5-min Rain = 0
KWA1 240954Z 08004KT 17/16 A2985 RMK A01 T01720163  RH  095%=      5-min Rain = 0
KWA1 240955Z 09004KT 17/16 A2985 RMK A01 T01720162  RH  094%=      5-min Rain = 0
KWA1 240956Z 09004KT 17/16 A2985 RMK A01 T01720162  RH  094%=      5-min Rain = 0
KWA1 240957Z 09004KT 17/16 A2985 RMK A01 T01720162  RH  094%=      5-min Rain = 0
KWA1 240958Z 10004KT 17/16 A2986 RMK A01 T01710162  RH  094%=      5-min Rain = 0
KWA1 240959Z 10005KT 17/16 A2986 RMK A01 T01710161  RH  094%=      5-min Rain = 0
KWA1 241000Z 11006KT 17/16 A2986 RMK A01 T01700161  RH  094%=      5-min Rain = 0
KWA1 241001Z 11006KT 17/16 A2986 RMK A01 T01700161  RH  095%=      5-min Rain = 0
KWA1 241002Z 11006KT 17/16 A2986 RMK A01 T01700161  RH  095%=      5-min Rain = 0
KWA1 241003Z 11006KT 17/16 A2986 RMK A01 T01710162  RH  095%=      5-min Rain = 0
KWA1 241004Z 11006KT 17/16 A2986 RMK A01 T01710162  RH  094%=      5-min Rain = 0
KWA1 241005Z 13006KT 17/16 A2986 RMK A01 T01700161  RH  094%=      5-min Rain = 0
KWA1 241006Z 13007KT 17/16 A2986 RMK A01 T01690159  RH  094%=      5-min Rain = 0
KWA1 241007Z 12006KT 17/16 A2986 RMK A01 T01680159  RH  094%=      5-min Rain = 0
KWA1 241008Z 12006KT 17/16 A2986 RMK A01 T01680159  RH  094%=      5-min Rain = 0
KWA1 241009Z 12006KT 17/16 A2986 RMK A01 T01680159  RH  095%=      5-min Rain = 0
KWA1 241010Z 13005KT 17/16 A2986 RMK A01 T01680159  RH  095%=      5-min Rain = 0
KWA1 241011Z 12004KT 17/16 A2986 RMK A01 T01670159  RH  095%=      5-min Rain = 0
KWA1 241012Z 13004KT 17/16 A2986 RMK A01 T01670160  RH  095%=      5-min Rain = 0
KWA1 241013Z 12005KT 17/16 A2986 RMK A01 T01670160  RH  095%=      5-min Rain = 0
KWA1 241014Z 12005KT 17/16 A2986 RMK A01 T01670160  RH  095%=      5-min Rain = 0
KWA1 241015Z 13004KT 17/16 A2986 RMK A01 T01670160  RH  095%=      5-min Rain = 0
KWA1 241016Z 13004KT 17/16 A2986 RMK A01 T01670160  RH  095%=      5-min Rain = 0
KWA1 241017Z 13004KT 17/16 A2986 RMK A01 T01670160  RH  096%=      5-min Rain = 0
KWA1 241018Z 13004KT 17/16 A2986 RMK A01 T01670160  RH  096%=      5-min Rain = 0
KWA1 241019Z 12004KT 17/16 A2986 RMK A01 T01670160  RH  096%=      5-min Rain = 0
KWA1 241020Z 12004KT 17/16 A2986 RMK A01 T01670160  RH  096%=      5-min Rain = 0
KWA1 241021Z 12004KT 17/16 A2986 RMK A01 T01670160  RH  095%=      5-min Rain = 0
KWA1 241022Z 11005KT 17/16 A2986 RMK A01 T01670159  RH  095%=      5-min Rain = 0
KWA1 241023Z 12004KT 17/16 A2986 RMK A01 T01660159  RH  095%=      5-min Rain = 0
KWA1 241024Z 12004KT 17/16 A2986 RMK A01 T01670159  RH  095%=      5-min Rain = 0
KWA1 241025Z 12004KT 17/16 A2986 RMK A01 T01660159  RH  095%=      5-min Rain = 0
KWA1 241026Z 13005KT 17/16 A2986 RMK A01 T01660158  RH  095%=      5-min Rain = 0
KWA1 241027Z 14005KT 17/16 A2987 RMK A01 T01660159  RH  095%=      5-min Rain = 0
KWA1 241028Z 14005KT 17/16 A2987 RMK A01 T01660158  RH  095%=      5-min Rain = 0
KWA1 241029Z 14005KT 17/16 A2987 RMK A01 T01660159  RH  096%=      5-min Rain = 0
KWA1 241030Z 13005KT 17/16 A2987 RMK A01 T01660160  RH  096%=      5-min Rain = 0
KWA1 241031Z 14005KT 17/16 A2987 RMK A01 T01670161  RH  096%=      5-min Rain = 0
KWA1 241032Z 15004KT 17/16 A2987 RMK A01 T01680161  RH  096%=      5-min Rain = 0
KWA1 241033Z 14004KT 17/16 A2986 RMK A01 T01680161  RH  095%=      5-min Rain = 0
KWA1 241034Z 15005KT 17/16 A2986 RMK A01 T01680160  RH  095%=      5-min Rain = 0
KWA1 241035Z 14004KT 17/16 A2986 RMK A01 T01670159  RH  095%=      5-min Rain = 0
KWA1 241036Z 14005KT 17/16 A2986 RMK A01 T01670159  RH  095%=      5-min Rain = 0
KWA1 241037Z 14005KT 17/16 A2987 RMK A01 T01670159  RH  095%=      5-min Rain = 0
KWA1 241038Z 15006KT 17/16 A2987 RMK A01 T01670159  RH  095%=      5-min Rain = 0
KWA1 241039Z 15005KT 17/16 A2987 RMK A01 T01670159  RH  095%=      5-min Rain = 0
KWA1 241040Z 15005KT 17/16 A2987 RMK A01 T01670159  RH  095%=      5-min Rain = 0
KWA1 241041Z 16005KT 17/16 A2987 RMK A01 T01670159  RH  095%=      5-min Rain = 0
KWA1 241042Z 16005KT 17/16 A2986 RMK A01 T01660158  RH  095%=      5-min Rain = 0
KWA1 241043Z 15005KT 17/16 A2986 RMK A01 T01660158  RH  095%=      5-min Rain = 0
KWA1 241044Z 16005KT 17/16 A2986 RMK A01 T01660158  RH  095%=      5-min Rain = 0
KWA1 241045Z 16005KT 17/16 A2986 RMK A01 T01650157  RH  095%=      5-min Rain = 0
KWA1 241046Z 17004KT 17/16 A2986 RMK A01 T01650157  RH  095%=      5-min Rain = 0
KWA1 241047Z 17004KT 17/16 A2986 RMK A01 T01650157  RH  095%=      5-min Rain = 0
KWA1 241048Z 16003KT 17/16 A2986 RMK A01 T01650157  RH  095%=      5-min Rain = 0
KWA1 241049Z 20004KT 16/16 A2986 RMK A01 T01640157  RH  095%=      5-min Rain = 0
KWA1 241050Z 19004KT 17/16 A2986 RMK A01 T01650156  RH  095%=      5-min Rain = 0
KWA1 241051Z 17004KT 16/16 A2986 RMK A01 T01640155  RH  094%=      5-min Rain = 0
KWA1 241052Z 15004KT 16/16 A2986 RMK A01 T01640155  RH  095%=      5-min Rain = 0
KWA1 241053Z 14003KT 16/16 A2986 RMK A01 T01640155  RH  095%=      5-min Rain = 0
KWA1 241054Z 14004KT 16/16 A2986 RMK A01 T01630155  RH  095%=      5-min Rain = 0
KWA1 241055Z 13004KT 16/16 A2986 RMK A01 T01630156  RH  095%=      5-min Rain = 0
KWA1 241056Z 14004KT 16/16 A2986 RMK A01 T01640156  RH  095%=      5-min Rain = 0
KWA1 241057Z 13004KT 16/16 A2986 RMK A01 T01640156  RH  095%=      5-min Rain = 0
KWA1 241058Z 13003KT 16/16 A2986 RMK A01 T01640156  RH  095%=      5-min Rain = 0
KWA1 241059Z 15004KT 16/16 A2986 RMK A01 T01640156  RH  095%=      5-min Rain = 0
KWA1 241100Z 14003KT 16/16 A2986 RMK A01 T01640156  RH  095%=      5-min Rain = 0
KWA1 241101Z 14002KT 16/16 A2986 RMK A01 T01640156  RH  095%=      5-min Rain = 0
KWA1 241102Z 15002KT 16/16 A2986 RMK A01 T01640156  RH  095%=      5-min Rain = 0
KWA1 241103Z 15002KT 16/16 A2986 RMK A01 T01640156  RH  096%=      5-min Rain = 0
KWA1 241104Z 18003KT 16/16 A2985 RMK A01 T01640157  RH  095%=      5-min Rain = 0
KWA1 241105Z 17003KT 16/16 A2985 RMK A01 T01640156  RH  095%=      5-min Rain = 0
KWA1 241106Z 17003KT 16/15 A2985 RMK A01 T01640154  RH  094%=      5-min Rain = 0
KWA1 241107Z 17003KT 16/15 A2985 RMK A01 T01630153  RH  094%=      5-min Rain = 0
KWA1 241108Z 16003KT 16/15 A2985 RMK A01 T01620154  RH  095%=      5-min Rain = 0
KWA1 241109Z 17003KT 16/15 A2985 RMK A01 T01620154  RH  095%=      5-min Rain = 0
KWA1 241110Z 16003KT 16/16 A2985 RMK A01 T01630155  RH  095%=      5-min Rain = 0
KWA1 241111Z 17004KT 16/16 A2985 RMK A01 T01630155  RH  095%=      5-min Rain = 0
KWA1 241112Z 17004KT 16/16 A2985 RMK A01 T01640156  RH  095%=      5-min Rain = 0
KWA1 241113Z 18004KT 17/16 A2985 RMK A01 T01650156  RH  094%=      5-min Rain = 0
KWA1 241114Z 17004KT 17/16 A2985 RMK A01 T01650155  RH  094%=      5-min Rain = 0
KWA1 241115Z 17005KT 17/16 A2985 RMK A01 T01650155  RH  094%=      5-min Rain = 0
KWA1 241116Z 15005KT 16/15 A2985 RMK A01 T01640154  RH  094%=      5-min Rain = 0
KWA1 241117Z 15003KT 16/16 A2985 RMK A01 T01640155  RH  094%=      5-min Rain = 0
KWA1 241118Z 14004KT 17/16 A2985 RMK A01 T01650156  RH  094%=      5-min Rain = 0
KWA1 241119Z 15004KT 17/16 A2985 RMK A01 T01660156  RH  094%=      5-min Rain = 0
KWA1 241120Z 17003KT 17/16 A2985 RMK A01 T01660155  RH  093%=      5-min Rain = 0
KWA1 241121Z 16004KT 17/16 A2985 RMK A01 T01660155  RH  094%=      5-min Rain = 0
KWA1 241122Z 18004KT 17/16 A2985 RMK A01 T01660155  RH  094%=      5-min Rain = 0
KWA1 241123Z 18004KT 17/15 A2985 RMK A01 T01660154  RH  093%=      5-min Rain = 0
KWA1 241124Z 15005KT 17/15 A2985 RMK A01 T01650154  RH  093%=      5-min Rain = 0
KWA1 241125Z 15004KT 17/15 A2985 RMK A01 T01660154  RH  093%=      5-min Rain = 0
KWA1 241126Z 14004KT 17/15 A2985 RMK A01 T01660154  RH  093%=      5-min Rain = 0
KWA1 241127Z 15003KT 17/15 A2985 RMK A01 T01660154  RH  093%=      5-min Rain = 0
KWA1 241128Z 14003KT 17/15 A2985 RMK A01 T01660154  RH  093%=      5-min Rain = 0
KWA1 241129Z 15002KT 17/15 A2985 RMK A01 T01650154  RH  093%=      5-min Rain = 0
KWA1 241130Z 16002KT 17/15 A2986 RMK A01 T01650154  RH  093%=      5-min Rain = 0
KWA1 241131Z 12002KT 17/15 A2986 RMK A01 T01650154  RH  093%=      5-min Rain = 0
KWA1 241132Z 12002KT 17/15 A2986 RMK A01 T01650154  RH  093%=      5-min Rain = 0
KWA1 241133Z 11002KT 17/15 A2986 RMK A01 T01650154  RH  093%=      5-min Rain = 0
KWA1 241134Z 10003KT 17/15 A2986 RMK A01 T01650154  RH  093%=      5-min Rain = 0
KWA1 241135Z 06004KT 17/15 A2986 RMK A01 T01650154  RH  093%=      5-min Rain = 0
KWA1 241136Z 06003KT 17/15 A2986 RMK A01 T01650154  RH  093%=      5-min Rain = 0
KWA1 241137Z 06003KT 17/15 A2986 RMK A01 T01650154  RH  093%=      5-min Rain = 0
KWA1 241138Z 07003KT 16/15 A2986 RMK A01 T01640154  RH  094%=      5-min Rain = 0
KWA1 241139Z 06002KT 16/15 A2986 RMK A01 T01630154  RH  094%=      5-min Rain = 0
KWA1 241140Z 07002KT 16/15 A2986 RMK A01 T01630154  RH  095%=      5-min Rain = 0
KWA1 241141Z 07001KT 16/15 A2986 RMK A01 T01620154  RH  095%=      5-min Rain = 0
KWA1 241142Z 07001KT 16/15 A2986 RMK A01 T01620153  RH  095%=      5-min Rain = 0
KWA1 241143Z 07001KT 16/15 A2986 RMK A01 T01610153  RH  095%=      5-min Rain = 0
KWA1 241144Z 07001KT 16/15 A2986 RMK A01 T01610154  RH  095%=      5-min Rain = 0
KWA1 241145Z 07000KT 16/15 A2986 RMK A01 T01610154  RH  096%=      5-min Rain = 0
KWA1 241146Z 00000KT 16/16 A2986 RMK A01 T01610155  RH  096%=      5-min Rain = 0
KWA1 241147Z 07000KT 16/16 A2986 RMK A01 T01610155  RH  096%=      5-min Rain = 0
KWA1 241148Z 08000KT 16/16 A2986 RMK A01 T01610155  RH  096%=      5-min Rain = 0
KWA1 241149Z 11000KT 16/16 A2986 RMK A01 T01610156  RH  096%=      5-min Rain = 0
KWA1 241150Z 11000KT 16/15 A2986 RMK A01 T01610154  RH  095%=      5-min Rain = 0
KWA1 241151Z 13000KT 16/15 A2986 RMK A01 T01600152  RH  095%=      5-min Rain = 0
KWA1 241152Z 13001KT 16/15 A2986 RMK A01 T01590151  RH  095%=      5-min Rain = 0
KWA1 241153Z 15002KT 16/15 A2986 RMK A01 T01590153  RH  096%=      5-min Rain = 0
KWA1 241154Z 16002KT 16/15 A2986 RMK A01 T01590153  RH  096%=      5-min Rain = 0
KWA1 241155Z 15002KT 16/15 A2986 RMK A01 T01590152  RH  096%=      5-min Rain = 0
KWA1 241156Z 15003KT 16/15 A2986 RMK A01 T01590152  RH  096%=      5-min Rain = 0
KWA1 241157Z 14003KT 16/15 A2986 RMK A01 T01590153  RH  096%=      5-min Rain = 0
KWA1 241158Z 14003KT 16/16 A2986 RMK A01 T01600156  RH  097%=      5-min Rain = 0
KWA1 241159Z 14003KT 16/16 A2986 RMK A01 T01610157  RH  097%=      5-min Rain = 0
KWA1 241200Z 14002KT 16/16 A2986 RMK A01 T01620157  RH  097%=      5-min Rain = 0
KWA1 241201Z 14002KT 16/16 A2986 RMK A01 T01620156  RH  096%=      5-min Rain = 0
KWA1 241202Z 14001KT 16/15 A2987 RMK A01 T01620154  RH  095%=      5-min Rain = 0
KWA1 241203Z 15001KT 16/15 A2987 RMK A01 T01600152  RH  095%=      5-min Rain = 0
KWA1 241204Z 15001KT 16/15 A2987 RMK A01 T01600151  RH  095%=      5-min Rain = 0
KWA1 241205Z 15000KT 16/15 A2987 RMK A01 T01600152  RH  095%=      5-min Rain = 0
KWA1 241206Z 00000KT 16/15 A2987 RMK A01 T01600153  RH  096%=      5-min Rain = 0
KWA1 241207Z 00000KT 16/15 A2987 RMK A01 T01600153  RH  096%=      5-min Rain = 0
KWA1 241208Z 15000KT 16/15 A2987 RMK A01 T01600153  RH  096%=      5-min Rain = 0
KWA1 241209Z 15000KT 16/15 A2988 RMK A01 T01600153  RH  096%=      5-min Rain = 0
KWA1 241210Z 15001KT 16/15 A2988 RMK A01 T01600153  RH  096%=      5-min Rain = 0
KWA1 241211Z 15001KT 16/15 A2988 RMK A01 T01600152  RH  095%=      5-min Rain = 0
KWA1 241212Z 15002KT 16/15 A2988 RMK A01 T01600152  RH  095%=      5-min Rain = 0
KWA1 241213Z 14002KT 16/15 A2988 RMK A01 T01600152  RH  095%=      5-min Rain = 0
KWA1 241214Z 15002KT 16/15 A2988 RMK A01 T01600153  RH  096%=      5-min Rain = 0
KWA1 241215Z 17003KT 16/15 A2988 RMK A01 T01610154  RH  096%=      5-min Rain = 0
KWA1 241216Z 17003KT 16/15 A2988 RMK A01 T01610153  RH  095%=      5-min Rain = 0
KWA1 241217Z 17003KT 16/15 A2988 RMK A01 T01610152  RH  094%=      5-min Rain = 0
KWA1 241218Z 18003KT 16/15 A2989 RMK A01 T01610152  RH  094%=      5-min Rain = 0
KWA1 241219Z 17003KT 16/15 A2988 RMK A01 T01620153  RH  095%=      5-min Rain = 0
KWA1 241220Z 15003KT 16/16 A2988 RMK A01 T01630155  RH  095%=      5-min Rain = 0
KWA1 241221Z 19004KT 17/16 A2989 RMK A01 T01650155  RH  094%=      5-min Rain = 0
KWA1 241222Z 20003KT 17/16 A2989 RMK A01 T01660155  RH  093%=      5-min Rain = 0
KWA1 241223Z 20003KT 17/16 A2989 RMK A01 T01660155  RH  093%=      5-min Rain = 0
KWA1 241224Z 21003KT 17/16 A2989 RMK A01 T01680155  RH  092%=      5-min Rain = 0
KWA1 241225Z 21003KT 17/16 A2989 RMK A01 T01690155  RH  091%=      5-min Rain = 0
KWA1 241226Z 22003KT 17/16 A2989 RMK A01 T01690156  RH  092%=      5-min Rain = 0
KWA1 241227Z 22003KT 17/16 A2989 RMK A01 T01690156  RH  092%=      5-min Rain = 0
KWA1 241228Z 21003KT 17/16 A2989 RMK A01 T01700156  RH  091%=      5-min Rain = 0
KWA1 241229Z 23003KT 17/16 A2989 RMK A01 T01710157  RH  091%=      5-min Rain = 0
KWA1 241230Z 23003KT 17/16 A2989 RMK A01 T01730158  RH  091%=      5-min Rain = 0
KWA1 241231Z 23002KT 17/16 A2989 RMK A01 T01730157  RH  090%=      5-min Rain = 0
KWA1 241232Z 22002KT 17/16 A2989 RMK A01 T01740158  RH  090%=      5-min Rain = 0
KWA1 241233Z 21001KT 18/16 A2989 RMK A01 T01760159  RH  090%=      5-min Rain = 0
KWA1 241234Z 18001KT 18/16 A2989 RMK A01 T01760159  RH  090%=      5-min Rain = 0
KWA1 241235Z 18001KT 18/16 A299 RMK A01 T01780161  RH  090%=      5-min Rain = 0
KWA1 241236Z 20001KT 18/16 A299 RMK A01 T01790160  RH  088%=      5-min Rain = 0
KWA1 241237Z 20001KT 18/16 A299 RMK A01 T01800160  RH  088%=      5-min Rain = 0
KWA1 241238Z 20001KT 18/16 A299 RMK A01 T01810158  RH  087%=      5-min Rain = 0
KWA1 241239Z 19001KT 18/16 A299 RMK A01 T01810159  RH  087%=      5-min Rain = 0
KWA1 241240Z 17002KT 18/16 A299 RMK A01 T01810158  RH  087%=      5-min Rain = 0
KWA1 241241Z 16002KT 18/16 A299 RMK A01 T01820157  RH  086%=      5-min Rain = 0
KWA1 241242Z 16002KT 18/16 A299 RMK A01 T01820159  RH  086%=      5-min Rain = 0
KWA1 241243Z 16002KT 18/16 A299 RMK A01 T01830160  RH  086%=      5-min Rain = 0
KWA1 241244Z 18002KT 18/16 A299 RMK A01 T01840162  RH  087%=      5-min Rain = 0
KWA1 241245Z 19003KT 19/16 A299 RMK A01 T01850160  RH  086%=      5-min Rain = 0
KWA1 241246Z 20003KT 19/16 A299 RMK A01 T01850160  RH  086%=      5-min Rain = 0
KWA1 241247Z 20003KT 19/16 A299 RMK A01 T01850158  RH  084%=      5-min Rain = 0
KWA1 241248Z 19004KT 19/16 A299 RMK A01 T01850157  RH  084%=      5-min Rain = 0
KWA1 241249Z 19003KT 19/16 A299 RMK A01 T01860157  RH  083%=      5-min Rain = 0
KWA1 241250Z 20002KT 19/16 A299 RMK A01 T01870155  RH  082%=      5-min Rain = 0
KWA1 241251Z 19002KT 19/16 A299 RMK A01 T01880159  RH  083%=      5-min Rain = 0
KWA1 241252Z 19002KT 19/16 A299 RMK A01 T01890161  RH  083%=      5-min Rain = 0
KWA1 241253Z 19002KT 19/16 A2991 RMK A01 T01900159  RH  082%=      5-min Rain = 0
KWA1 241254Z 18001KT 19/16 A2991 RMK A01 T01920157  RH  080%=      5-min Rain = 0
KWA1 241255Z 18001KT 19/16 A2991 RMK A01 T01930157  RH  080%=      5-min Rain = 0
KWA1 241256Z 00000KT 19/16 A2991 RMK A01 T01940157  RH  079%=      5-min Rain = 0
KWA1 241257Z 08001KT 20/16 A2991 RMK A01 T01970159  RH  079%=      5-min Rain = 0
KWA1 241258Z 07002KT 20/16 A2991 RMK A01 T01990161  RH  079%=      5-min Rain = 0
KWA1 241259Z 06003KT 20/16 A2991 RMK A01 T01990162  RH  079%=      5-min Rain = 0
KWA1 241300Z 06003KT 20/17 A2991 RMK A01 T01980166  RH  081%=      5-min Rain = 0
KWA1 241301Z 06004KT 20/16 A2991 RMK A01 T01960164  RH  081%=      5-min Rain = 0
KWA1 241302Z 06005KT 19/16 A2991 RMK A01 T01940163  RH  082%=      5-min Rain = 0
KWA1 241303Z 06004KT 19/16 A2992 RMK A01 T01920164  RH  084%=      5-min Rain = 0
KWA1 241304Z 06005KT 19/16 A2991 RMK A01 T01920162  RH  083%=      5-min Rain = 0
KWA1 241305Z 06006KT 19/16 A2991 RMK A01 T01910160  RH  082%=      5-min Rain = 0
KWA1 241306Z 07007KT 19/16 A2991 RMK A01 T01920160  RH  082%=      5-min Rain = 0
KWA1 241307Z 07006KT 19/16 A2991 RMK A01 T01920159  RH  082%=      5-min Rain = 0
KWA1 241308Z 07006KT 19/16 A2991 RMK A01 T01920163  RH  083%=      5-min Rain = 0
KWA1 241309Z 07006KT 19/16 A2991 RMK A01 T01930163  RH  083%=      5-min Rain = 0
KWA1 241310Z 07005KT 19/16 A2991 RMK A01 T01940163  RH  082%=      5-min Rain = 0
KWA1 241311Z 07005KT 19/16 A2991 RMK A01 T01940164  RH  082%=      5-min Rain = 0
KWA1 241312Z 08004KT 20/16 A2991 RMK A01 T01950162  RH  081%=      5-min Rain = 0
KWA1 241313Z 09004KT 20/17 A2991 RMK A01 T01960165  RH  082%=      5-min Rain = 0
KWA1 241314Z 10003KT 20/16 A2991 RMK A01 T01980159  RH  078%=      5-min Rain = 0
KWA1 241315Z 10003KT 20/16 A2991 RMK A01 T01980158  RH  078%=      5-min Rain = 0
KWA1 241316Z 10003KT 20/16 A2991 RMK A01 T01980161  RH  079%=      5-min Rain = 0
KWA1 241317Z 11003KT 20/16 A2991 RMK A01 T01980160  RH  079%=      5-min Rain = 0
KWA1 241318Z 12003KT 20/16 A2991 RMK A01 T01980161  RH  079%=      5-min Rain = 0
KWA1 241319Z 13003KT 20/16 A2991 RMK A01 T01980159  RH  078%=      5-min Rain = 0
KWA1 241320Z 13002KT 20/16 A2991 RMK A01 T01990161  RH  079%=      5-min Rain = 0
KWA1 241321Z 13003KT 20/16 A2991 RMK A01 T01990160  RH  078%=      5-min Rain = 0
KWA1 241322Z 12003KT 20/16 A2991 RMK A01 T02000159  RH  077%=      5-min Rain = 0
KWA1 241323Z 11002KT 20/16 A2991 RMK A01 T02000159  RH  077%=      5-min Rain = 0
KWA1 241324Z 11003KT 20/16 A2992 RMK A01 T02000160  RH  077%=      5-min Rain = 0
KWA1 241325Z 11003KT 20/16 A2992 RMK A01 T02000161  RH  078%=      5-min Rain = 0
KWA1 241326Z 10003KT 20/16 A2992 RMK A01 T02000159  RH  077%=      5-min Rain = 0
KWA1 241327Z 10003KT 20/16 A2992 RMK A01 T02000158  RH  077%=      5-min Rain = 0
KWA1 241328Z 09003KT 20/16 A2992 RMK A01 T02000158  RH  077%=      5-min Rain = 0
KWA1 241329Z 09004KT 20/16 A2992 RMK A01 T02010161  RH  078%=      5-min Rain = 0
KWA1 241330Z 09005KT 20/16 A2992 RMK A01 T02010160  RH  077%=      5-min Rain = 0
KWA1 241331Z 08005KT 20/16 A2992 RMK A01 T02010162  RH  079%=      5-min Rain = 0
KWA1 241332Z 08005KT 20/16 A2992 RMK A01 T02000163  RH  079%=      5-min Rain = 0
KWA1 241333Z 08005KT 20/16 A2992 RMK A01 T02000161  RH  078%=      5-min Rain = 0
KWA1 241334Z 08006KT 20/16 A2992 RMK A01 T01990164  RH  080%=      5-min Rain = 0
KWA1 241335Z 08006KT 20/16 A2992 RMK A01 T01980160  RH  079%=      5-min Rain = 0
KWA1 241336Z 08006KT 20/16 A2992 RMK A01 T01970160  RH  079%=      5-min Rain = 0
KWA1 241337Z 08006KT 20/16 A2992 RMK A01 T01970163  RH  081%=      5-min Rain = 0
KWA1 241338Z 09006KT 20/16 A2992 RMK A01 T01970161  RH  080%=      5-min Rain = 0
KWA1 241339Z 09006KT 20/16 A2992 RMK A01 T01970160  RH  079%=      5-min Rain = 0
KWA1 241340Z 09006KT 20/16 A2992 RMK A01 T01960159  RH  079%=      5-min Rain = 0
KWA1 241341Z 09006KT 20/16 A2992 RMK A01 T01970160  RH  079%=      5-min Rain = 0
KWA1 241342Z 09006KT 20/16 A2992 RMK A01 T01970160  RH  080%=      5-min Rain = 0
KWA1 241343Z 09006KT 20/16 A2992 RMK A01 T01970160  RH  079%=      5-min Rain = 0
KWA1 241344Z 09005KT 20/16 A2992 RMK A01 T01970158  RH  078%=      5-min Rain = 0
KWA1 241345Z 09004KT 20/16 A2992 RMK A01 T01970159  RH  079%=      5-min Rain = 0
KWA1 241346Z 09005KT 20/16 A2992 RMK A01 T01980160  RH  079%=      5-min Rain = 0
KWA1 241347Z 09005KT 20/16 A2991 RMK A01 T01990159  RH  078%=      5-min Rain = 0
KWA1 241348Z 09004KT 20/16 A2991 RMK A01 T02000161  RH  078%=      5-min Rain = 0
KWA1 241349Z 08004KT 20/16 A2991 RMK A01 T02010160  RH  077%=      5-min Rain = 0
KWA1 241350Z 09004KT 20/16 A2991 RMK A01 T02020158  RH  076%=      5-min Rain = 0
KWA1 241351Z 09004KT 20/16 A2991 RMK A01 T02040161  RH  077%=      5-min Rain = 0
KWA1 241352Z 09005KT 21/16 A2991 RMK A01 T02050160  RH  076%=      5-min Rain = 0
KWA1 241353Z 09005KT 21/16 A2991 RMK A01 T02060160  RH  075%=      5-min Rain = 0
KWA1 241354Z 09005KT 21/16 A2991 RMK A01 T02070163  RH  076%=      5-min Rain = 0
KWA1 241355Z 09005KT 21/16 A2991 RMK A01 T02080161  RH  075%=      5-min Rain = 0
KWA1 241356Z 10005KT 21/16 A2991 RMK A01 T02080164  RH  076%=      5-min Rain = 0
KWA1 241357Z 10006KT 21/16 A2991 RMK A01 T02090162  RH  075%=      5-min Rain = 0
KWA1 241358Z 11006KT 21/16 A2991 RMK A01 T02090162  RH  074%=      5-min Rain = 0
KWA1 241359Z 11006KT 21/16 A2991 RMK A01 T02100160  RH  073%=      5-min Rain = 0
KWA1 241400Z 12005KT 21/16 A2991 RMK A01 T02110160  RH  072%=      5-min Rain = 0
KWA1 241401Z 11005KT 21/16 A2991 RMK A01 T02110160  RH  073%=      5-min Rain = 0
KWA1 241402Z 12006KT 21/16 A2991 RMK A01 T02120162  RH  073%=      5-min Rain = 0
KWA1 241403Z 10005KT 21/17 A2991 RMK A01 T02130166  RH  075%=      5-min Rain = 0
KWA1 241404Z 09007KT 21/17 A2991 RMK A01 T02140168  RH  075%=      5-min Rain = 0
KWA1 241405Z 09008KT 21/17 A2991 RMK A01 T02140166  RH  074%=      5-min Rain = 0
KWA1 241406Z 08008KT 21/16 A2991 RMK A01 T02130162  RH  073%=      5-min Rain = 0
KWA1 241407Z 08007KT 21/16 A2991 RMK A01 T02110164  RH  074%=      5-min Rain = 0
KWA1 241408Z 09007KT 21/16 A2991 RMK A01 T02110162  RH  074%=      5-min Rain = 0
KWA1 241409Z 10006KT 21/17 A2991 RMK A01 T02110166  RH  075%=      5-min Rain = 0
KWA1 241410Z 11007KT 21/16 A2991 RMK A01 T02120163  RH  074%=      5-min Rain = 0
KWA1 241411Z 12006KT 21/16 A299 RMK A01 T02120162  RH  073%=      5-min Rain = 0
KWA1 241412Z 12008KT 21/16 A299 RMK A01 T02130163  RH  073%=      5-min Rain = 0
KWA1 241413Z 11009KT 21/16 A299 RMK A01 T02120163  RH  073%=      5-min Rain = 0
KWA1 241414Z 11007KT 21/16 A299 RMK A01 T02120163  RH  073%=      5-min Rain = 0
KWA1 241415Z 10008KT 21/17 A299 RMK A01 T02130166  RH  075%=      5-min Rain = 0
KWA1 241416Z 11007KT 21/17 A2991 RMK A01 T02140166  RH  074%=      5-min Rain = 0
KWA1 241417Z 11006KT 22/16 A2991 RMK A01 T02150163  RH  072%=      5-min Rain = 0
KWA1 241418Z 12008KT 22/17 A2991 RMK A01 T02150166  RH  074%=      5-min Rain = 0
KWA1 241419Z 10007KT 22/17 A2991 RMK A01 T02160167  RH  074%=      5-min Rain = 0
KWA1 241420Z 10007KT 22/17 A2991 RMK A01 T02170169  RH  074%=      5-min Rain = 0
KWA1 241421Z 12007KT 22/17 A2991 RMK A01 T02180167  RH  073%=      5-min Rain = 0
KWA1 241422Z 10008KT 22/17 A2991 RMK A01 T02180169  RH  074%=      5-min Rain = 0
KWA1 241423Z 11007KT 22/17 A2991 RMK A01 T02190168  RH  073%=      5-min Rain = 0
KWA1 241424Z 11007KT 22/17 A2991 RMK A01 T02190168  RH  073%=      5-min Rain = 0
KWA1 241425Z 12007KT 22/17 A2991 RMK A01 T02190170  RH  074%=      5-min Rain = 0
KWA1 241426Z 10008KT 22/17 A2991 RMK A01 T02200171  RH  074%=      5-min Rain = 0
KWA1 241427Z 12009KT 22/17 A2991 RMK A01 T02210171  RH  074%=      5-min Rain = 0
KWA1 241428Z 11008KT 22/17 A299 RMK A01 T02220172  RH  073%=      5-min Rain = 0
KWA1 241429Z 12008KT 22/17 A299 RMK A01 T02220172  RH  073%=      5-min Rain = 0
KWA1 241430Z 12008KT 22/17 A299 RMK A01 T02220172  RH  073%=      5-min Rain = 0
KWA1 241431Z 13009KT 22/18 A299 RMK A01 T02240175  RH  074%=      5-min Rain = 0
KWA1 241432Z 13010KT 23/17 A299 RMK A01 T02250173  RH  072%=      5-min Rain = 0
KWA1 241433Z 13011KT 23/17 A299 RMK A01 T02260172  RH  072%=      5-min Rain = 0
KWA1 241434Z 13012KT 23/17 A299 RMK A01 T02260173  RH  072%=      5-min Rain = 0
KWA1 241435Z 12012KT 23/17 A299 RMK A01 T02260174  RH  072%=      5-min Rain = 0
KWA1 241436Z 12010KT 23/18 A299 RMK A01 T02270176  RH  073%=      5-min Rain = 0
KWA1 241437Z 13011KT 23/18 A299 RMK A01 T02290177  RH  072%=      5-min Rain = 0
KWA1 241438Z 13010KT 23/18 A299 RMK A01 T02310178  RH  072%=      5-min Rain = 0
KWA1 241439Z 13011KT 23/18 A299 RMK A01 T02330178  RH  071%=      5-min Rain = 0
KWA1 241440Z 12010KT 23/18 A299 RMK A01 T02340180  RH  072%=      5-min Rain = 0
KWA1 241441Z 12011KT 23/18 A299 RMK A01 T02340179  RH  071%=      5-min Rain = 0
KWA1 241442Z 11012KT 24/18 A299 RMK A01 T02350178  RH  070%=      5-min Rain = 0
KWA1 241443Z 12011KT 24/18 A299 RMK A01 T02350178  RH  070%=      5-min Rain = 0
KWA1 241444Z 13009KT 24/18 A299 RMK A01 T02350181  RH  071%=      5-min Rain = 0
KWA1 241445Z 14012KT 24/18 A299 RMK A01 T02350180  RH  071%=      5-min Rain = 0
KWA1 241446Z 13011KT 24/18 A2989 RMK A01 T02360178  RH  070%=      5-min Rain = 0
KWA1 241447Z 13010KT 24/18 A299 RMK A01 T02360180  RH  071%=      5-min Rain = 0
KWA1 241448Z 12009KT 24/18 A299 RMK A01 T02370179  RH  070%=      5-min Rain = 0
KWA1 241449Z 13010KT 24/18 A299 RMK A01 T02360180  RH  070%=      5-min Rain = 0
KWA1 241450Z 12010KT 24/18 A299 RMK A01 T02360181  RH  071%=      5-min Rain = 0
KWA1 241451Z 13010KT 24/18 A299 RMK A01 T02370183  RH  072%=      5-min Rain = 0
KWA1 241452Z 13011KT 24/18 A299 RMK A01 T02390183  RH  071%=      5-min Rain = 0
KWA1 241453Z 13010KT 24/18 A299 RMK A01 T02390182  RH  071%=      5-min Rain = 0
KWA1 241454Z 13011KT 24/18 A299 RMK A01 T02390182  RH  071%=      5-min Rain = 0
KWA1 241455Z 13008KT 24/18 A299 RMK A01 T02390182  RH  071%=      5-min Rain = 0
KWA1 241456Z 14011KT 24/18 A2989 RMK A01 T02390182  RH  070%=      5-min Rain = 0
KWA1 241457Z 14008KT 24/18 A2989 RMK A01 T02390181  RH  070%=      5-min Rain = 0
KWA1 241458Z 13009KT 24/18 A2989 RMK A01 T02390183  RH  071%=      5-min Rain = 0
KWA1 241459Z 13009KT 24/18 A2989 RMK A01 T02380182  RH  070%=      5-min Rain = 0
KWA1 241500Z 13010KT 24/18 A2989 RMK A01 T02390182  RH  070%=      5-min Rain = 0
KWA1 241501Z 15009KT 24/18 A2989 RMK A01 T02380182  RH  071%=      5-min Rain = 0
KWA1 241502Z 14010KT 24/18 A2989 RMK A01 T02390183  RH  071%=      5-min Rain = 0
KWA1 241503Z 14012KT 24/18 A2989 RMK A01 T02400183  RH  070%=      5-min Rain = 0
KWA1 241504Z 14011KT 24/18 A2989 RMK A01 T02400182  RH  070%=      5-min Rain = 0
KWA1 241505Z 15010KT 24/18 A2989 RMK A01 T02400182  RH  070%=      5-min Rain = 0
KWA1 241506Z 15011KT 24/18 A2989 RMK A01 T02410184  RH  070%=      5-min Rain = 0
KWA1 241507Z 14011KT 24/19 A2989 RMK A01 T02440186  RH  070%=      5-min Rain = 0
KWA1 241508Z 15009KT 25/19 A2988 RMK A01 T02450185  RH  069%=      5-min Rain = 0
KWA1 241509Z 16011KT 25/19 A2989 RMK A01 T02460187  RH  070%=      5-min Rain = 0
KWA1 241510Z 17015KT 25/19 A2988 RMK A01 T02480188  RH  069%=      5-min Rain = 0
KWA1 241511Z 17013KT 25/19 A2989 RMK A01 T02520191  RH  069%=      5-min Rain = 0
KWA1 241512Z 16012KT 25/19 A2988 RMK A01 T02540190  RH  068%=      5-min Rain = 0
KWA1 241513Z 17013KT 26/19 A2988 RMK A01 T02550189  RH  067%=      5-min Rain = 0
KWA1 241514Z 18013KT 26/19 A2988 RMK A01 T02550188  RH  066%=      5-min Rain = 0
KWA1 241515Z 18014KT 26/19 A2988 RMK A01 T02550189  RH  067%=      5-min Rain = 0
KWA1 241516Z 19016KT 26/19 A2988 RMK A01 T02550188  RH  066%=      5-min Rain = 0
KWA1 241517Z 18016KT 26/19 A2988 RMK A01 T02550188  RH  066%=      5-min Rain = 0
KWA1 241518Z 18014KT 26/19 A2988 RMK A01 T02550188  RH  066%=      5-min Rain = 0
KWA1 241519Z 17012KT 26/19 A2988 RMK A01 T02550188  RH  067%=      5-min Rain = 0
KWA1 241520Z 18013KT 26/19 A2988 RMK A01 T02550188  RH  066%=      5-min Rain = 0
KWA1 241521Z 19013KT 26/19 A2988 RMK A01 T02560190  RH  067%=      5-min Rain = 0
KWA1 241522Z 19014KT 26/19 A2988 RMK A01 T02560190  RH  067%=      5-min Rain = 0
KWA1 241523Z 17016KT 26/19 A2988 RMK A01 T02560189  RH  066%=      5-min Rain = 0
KWA1 241524Z 18014KT 26/19 A2988 RMK A01 T02560187  RH  066%=      5-min Rain = 0
KWA1 241525Z 18015KT 26/19 A2988 RMK A01 T02580189  RH  065%=      5-min Rain = 0
KWA1 241526Z 19012KT 26/19 A2988 RMK A01 T02600190  RH  065%=      5-min Rain = 0
KWA1 241527Z 19011KT 26/19 A2988 RMK A01 T02620192  RH  065%=      5-min Rain = 0
KWA1 241528Z 17013G18KT 26/19 A2988 RMK A01 T02640194  RH  065%=      5-min Rain = 0
KWA1 241529Z 17018KT 27/19 A2988 RMK A01 T02670189  RH  062%=      5-min Rain = 0
KWA1 241530Z 17014G21KT 27/19 A2988 RMK A01 T02670192  RH  063%=      5-min Rain = 0
KWA1 241531Z 17017KT 27/19 A2988 RMK A01 T02660189  RH  063%=      5-min Rain = 0
KWA1 241532Z 17018KT 27/19 A2988 RMK A01 T02650187  RH  062%=      5-min Rain = 0
KWA1 241533Z 17015KT 26/19 A2988 RMK A01 T02640187  RH  063%=      5-min Rain = 0
KWA1 241534Z 18014KT 26/19 A2988 RMK A01 T02630187  RH  063%=      5-min Rain = 0
KWA1 241535Z 17015KT 26/19 A2988 RMK A01 T02620187  RH  063%=      5-min Rain = 0
KWA1 241536Z 17013KT 26/19 A2988 RMK A01 T02640189  RH  063%=      5-min Rain = 0
KWA1 241537Z 17013KT 27/19 A2988 RMK A01 T02660191  RH  063%=      5-min Rain = 0
KWA1 241538Z 18013KT 27/20 A2988 RMK A01 T02700195  RH  063%=      5-min Rain = 0
KWA1 241539Z 16017KT 27/19 A2988 RMK A01 T02730192  RH  061%=      5-min Rain = 0
KWA1 241540Z 18016KT 27/19 A2988 RMK A01 T02710190  RH  061%=      5-min Rain = 0
KWA1 241541Z 19016KT 27/19 A2988 RMK A01 T02700190  RH  061%=      5-min Rain = 0
KWA1 241542Z 18015G21KT 27/19 A2988 RMK A01 T02690191  RH  062%=      5-min Rain = 0
KWA1 241543Z 18014KT 27/19 A2988 RMK A01 T02690192  RH  062%=      5-min Rain = 0
KWA1 241544Z 18017KT 27/19 A2987 RMK A01 T02710189  RH  061%=      5-min Rain = 0
KWA1 241545Z 18015KT 27/19 A2988 RMK A01 T02710189  RH  061%=      5-min Rain = 0
KWA1 241546Z 18015KT 27/19 A2988 RMK A01 T02720190  RH  061%=      5-min Rain = 0
KWA1 241547Z 17015G21KT 27/19 A2988 RMK A01 T02730190  RH  061%=      5-min Rain = 0
KWA1 241548Z 17018KT 27/19 A2988 RMK A01 T02730186  RH  059%=      5-min Rain = 0
KWA1 241549Z 17017KT 27/18 A2987 RMK A01 T02700184  RH  059%=      5-min Rain = 0
KWA1 241550Z 17016KT 27/19 A2987 RMK A01 T02690185  RH  060%=      5-min Rain = 0
KWA1 241551Z 16015KT 27/18 A2987 RMK A01 T02690184  RH  060%=      5-min Rain = 0
KWA1 241552Z 17014KT 27/19 A2987 RMK A01 T02690187  RH  061%=      5-min Rain = 0
KWA1 241553Z 18017G22KT 27/19 A2987 RMK A01 T02720191  RH  061%=      5-min Rain = 0
KWA1 241554Z 19018KT 27/19 A2987 RMK A01 T02720186  RH  059%=      5-min Rain = 0
KWA1 241555Z 18015G20KT 27/19 A2987 RMK A01 T02700187  RH  060%=      5-min Rain = 0
KWA1 241556Z 19017KT 27/19 A2987 RMK A01 T02710189  RH  061%=      5-min Rain = 0
KWA1 241557Z 17016KT 27/19 A2987 RMK A01 T02730190  RH  061%=      5-min Rain = 0
KWA1 241558Z 17015KT 27/19 A2987 RMK A01 T02740188  RH  060%=      5-min Rain = 0
KWA1 241559Z 18016KT 27/19 A2987 RMK A01 T02730189  RH  060%=      5-min Rain = 0
KWA1 241600Z 18014KT 27/19 A2987 RMK A01 T02730190  RH  060%=      5-min Rain = 0
KWA1 241601Z 18013KT 27/19 A2987 RMK A01 T02740191  RH  061%=      5-min Rain = 0
KWA1 241602Z 17016KT 27/19 A2987 RMK A01 T02730187  RH  059%=      5-min Rain = 0
KWA1 241603Z 16016KT 27/19 A2987 RMK A01 T02710186  RH  060%=      5-min Rain = 0
KWA1 241604Z 17016G21KT 27/19 A2987 RMK A01 T02700189  RH  061%=      5-min Rain = 0
KWA1 241605Z 18017KT 27/19 A2987 RMK A01 T02720186  RH  059%=      5-min Rain = 0
KWA1 241606Z 17017G22KT 27/19 A2987 RMK A01 T02730187  RH  060%=      5-min Rain = 0
KWA1 241607Z 17019KT 27/19 A2987 RMK A01 T02730186  RH  059%=      5-min Rain = 0
KWA1 241608Z 17018KT 27/19 A2987 RMK A01 T02730187  RH  059%=      5-min Rain = 0
KWA1 241609Z 17020KT 27/19 A2987 RMK A01 T02740185  RH  059%=      5-min Rain = 0
KWA1 241610Z 17018G23KT 28/19 A2987 RMK A01 T02750185  RH  058%=      5-min Rain = 0
KWA1 241611Z 17019KT 28/19 A2987 RMK A01 T02750186  RH  058%=      5-min Rain = 0
KWA1 241612Z 16015G21KT 28/19 A2987 RMK A01 T02750189  RH  059%=      5-min Rain = 0
KWA1 241613Z 18018KT 28/19 A2987 RMK A01 T02780190  RH  059%=      5-min Rain = 0
KWA1 241614Z 18017KT 28/19 A2987 RMK A01 T02770189  RH  059%=      5-min Rain = 0
KWA1 241615Z 18015KT 28/19 A2987 RMK A01 T02770190  RH  059%=      5-min Rain = 0
KWA1 241616Z 17016G21KT 28/19 A2987 RMK A01 T02770189  RH  059%=      5-min Rain = 0
KWA1 241617Z 17021KT 28/19 A2987 RMK A01 T02780187  RH  058%=      5-min Rain = 0
KWA1 241618Z 18016KT 28/19 A2987 RMK A01 T02760185  RH  058%=      5-min Rain = 0
KWA1 241619Z 17019KT 28/19 A2987 RMK A01 T02750186  RH  058%=      5-min Rain = 0
KWA1 241620Z 18015G20KT 28/19 A2987 RMK A01 T02770189  RH  059%=      5-min Rain = 0
KWA1 241621Z 19018KT 28/19 A2987 RMK A01 T02790189  RH  058%=      5-min Rain = 0
KWA1 241622Z 18017KT 28/19 A2987 RMK A01 T02790191  RH  059%=      5-min Rain = 0
KWA1 241623Z 18019KT 28/19 A2987 RMK A01 T02820191  RH  058%=      5-min Rain = 0
KWA1 241624Z 17017KT 28/19 A2987 RMK A01 T02810185  RH  056%=      5-min Rain = 0
KWA1 241625Z 18016KT 28/19 A2987 RMK A01 T02790187  RH  057%=      5-min Rain = 0
KWA1 241626Z 18020KT 28/19 A2987 RMK A01 T02810190  RH  058%=      5-min Rain = 0
KWA1 241627Z 18018KT 28/19 A2987 RMK A01 T02820188  RH  057%=      5-min Rain = 0
KWA1 241628Z 18017G23KT 28/19 A2987 RMK A01 T02800186  RH  057%=      5-min Rain = 0
KWA1 241629Z 19018KT 28/19 A2987 RMK A01 T02790187  RH  057%=      5-min Rain = 0
KWA1 241630Z 19020KT 28/19 A2987 RMK A01 T02780187  RH  058%=      5-min Rain = 0
KWA1 241631Z 19020KT 28/19 A2987 RMK A01 T02800187  RH  057%=      5-min Rain = 0
KWA1 241632Z 19022KT 28/19 A2987 RMK A01 T02820187  RH  056%=      5-min Rain = 0
KWA1 241633Z 18018KT 28/19 A2987 RMK A01 T02810185  RH  056%=      5-min Rain = 0
KWA1 241634Z 19019KT 28/19 A2987 RMK A01 T02800187  RH  057%=      5-min Rain = 0
KWA1 241635Z 18018G23KT 28/18 A2987 RMK A01 T02780184  RH  057%=      5-min Rain = 0
KWA1 241636Z 19016G22KT 28/19 A2987 RMK A01 T02760186  RH  058%=      5-min Rain = 0
KWA1 241637Z 18023KT 28/19 A2987 RMK A01 T02770185  RH  057%=      5-min Rain = 0
KWA1 241638Z 17020G25KT 28/18 A2987 RMK A01 T02790184  RH  056%=      5-min Rain = 0
KWA1 241639Z 17019KT 28/19 A2987 RMK A01 T02800187  RH  057%=      5-min Rain = 0
KWA1 241640Z 17019KT 28/19 A2987 RMK A01 T02830186  RH  056%=      5-min Rain = 0
KWA1 241641Z 17020KT 28/19 A2987 RMK A01 T02830185  RH  055%=      5-min Rain = 0
KWA1 241642Z 17018KT 28/18 A2987 RMK A01 T02820183  RH  055%=      5-min Rain = 0
KWA1 241643Z 18017KT 28/19 A2987 RMK A01 T02800185  RH  056%=      5-min Rain = 0
KWA1 241644Z 18020KT 28/19 A2987 RMK A01 T02830190  RH  057%=      5-min Rain = 0
KWA1 241645Z 18018KT 29/19 A2987 RMK A01 T02850186  RH  055%=      5-min Rain = 0
KWA1 241646Z 18017KT 29/19 A2987 RMK A01 T02850187  RH  055%=      5-min Rain = 0
KWA1 241647Z 18019KT 29/19 A2987 RMK A01 T02870187  RH  054%=      5-min Rain = 0
KWA1 241648Z 17016KT 29/19 A2987 RMK A01 T02870187  RH  054%=      5-min Rain = 0
KWA1 241649Z 17015KT 29/19 A2987 RMK A01 T02860188  RH  055%=      5-min Rain = 0
KWA1 241650Z 17017G22KT 29/19 A2987 RMK A01 T02880188  RH  055%=      5-min Rain = 0
KWA1 241651Z 18019G25KT 29/19 A2987 RMK A01 T02890188  RH  055%=      5-min Rain = 0
KWA1 241652Z 17020KT 29/19 A2987 RMK A01 T02890186  RH  054%=      5-min Rain = 0
KWA1 241653Z 17018KT 29/19 A2987 RMK A01 T02880186  RH  054%=      5-min Rain = 0
KWA1 241654Z 18016G21KT 29/19 A2987 RMK A01 T02880186  RH  054%=      5-min Rain = 0
KWA1 241655Z 19017KT 29/19 A2987 RMK A01 T02870190  RH  056%=      5-min Rain = 0
KWA1 241656Z 18020KT 29/19 A2987 RMK A01 T02870188  RH  055%=      5-min Rain = 0
KWA1 241657Z 18016KT 29/19 A2987 RMK A01 T02850186  RH  055%=      5-min Rain = 0
KWA1 241658Z 17015KT 28/19 A2987 RMK A01 T02830185  RH  055%=      5-min Rain = 0
KWA1 241659Z 18020KT 28/19 A2987 RMK A01 T02830187  RH  056%=      5-min Rain = 0
KWA1 241700Z 17018KT 28/19 A2987 RMK A01 T02840185  RH  055%=      5-min Rain = 0
KWA1 241701Z 18016KT 28/19 A2987 RMK A01 T02840186  RH  056%=      5-min Rain = 0
KWA1 241702Z 19013KT 28/18 A2987 RMK A01 T02820184  RH  055%=      5-min Rain = 0
KWA1 241703Z 18015G20KT 28/19 A2987 RMK A01 T02800185  RH  056%=      5-min Rain = 0
KWA1 241704Z 19016KT 28/19 A2987 RMK A01 T02800185  RH  056%=      5-min Rain = 0
KWA1 241705Z 19016KT 28/19 A2987 RMK A01 T02820188  RH  057%=      5-min Rain = 0
KWA1 241706Z 18017KT 29/19 A2987 RMK A01 T02850188  RH  056%=      5-min Rain = 0
KWA1 241707Z 18016KT 29/19 A2986 RMK A01 T02850185  RH  055%=      5-min Rain = 0
KWA1 241708Z 17017KT 29/19 A2987 RMK A01 T02850186  RH  055%=      5-min Rain = 0
KWA1 241709Z 16015KT 29/19 A2986 RMK A01 T02860187  RH  055%=      5-min Rain = 0
KWA1 241710Z 16014KT 29/19 A2986 RMK A01 T02870188  RH  055%=      5-min Rain = 0
KWA1 241711Z 18017KT 29/19 A2986 RMK A01 T02890188  RH  054%=      5-min Rain = 0
KWA1 241712Z 17016KT 29/19 A2986 RMK A01 T02890187  RH  054%=      5-min Rain = 0
KWA1 241713Z 18020KT 29/19 A2986 RMK A01 T02900188  RH  054%=      5-min Rain = 0
KWA1 241714Z 18018KT 29/19 A2986 RMK A01 T02920185  RH  052%=      5-min Rain = 0
KWA1 241715Z 18017KT 29/18 A2986 RMK A01 T02910183  RH  052%=      5-min Rain = 0
KWA1 241716Z 17013KT 29/18 A2986 RMK A01 T02890184  RH  053%=      5-min Rain = 0
KWA1 241717Z 17016G23KT 29/19 A2986 RMK A01 T02890186  RH  054%=      5-min Rain = 0
KWA1 241718Z 17017KT 29/18 A2986 RMK A01 T02890184  RH  053%=      5-min Rain = 0
KWA1 241719Z 17017KT 29/19 A2986 RMK A01 T02890185  RH  053%=      5-min Rain = 0
KWA1 241720Z 17019KT 29/19 A2986 RMK A01 T02880185  RH  054%=      5-min Rain = 0
KWA1 241721Z 17014KT 29/19 A2986 RMK A01 T02880185  RH  054%=      5-min Rain = 0
KWA1 241722Z 17016KT 29/19 A2986 RMK A01 T02890186  RH  054%=      5-min Rain = 0
KWA1 241723Z 18019KT 29/18 A2986 RMK A01 T02890183  RH  053%=      5-min Rain = 0
KWA1 241724Z 18017KT 29/18 A2986 RMK A01 T02880179  RH  052%=      5-min Rain = 0
KWA1 241725Z 19016KT 29/18 A2986 RMK A01 T02870183  RH  053%=      5-min Rain = 0
KWA1 241726Z 19018KT 29/19 A2986 RMK A01 T02890186  RH  054%=      5-min Rain = 0
KWA1 241727Z 19016G21KT 29/19 A2986 RMK A01 T02890186  RH  054%=      5-min Rain = 0
KWA1 241728Z 19015G21KT 29/19 A2986 RMK A01 T02890185  RH  053%=      5-min Rain = 0
KWA1 241729Z 18021KT 29/19 A2986 RMK A01 T02890186  RH  054%=      5-min Rain = 0
KWA1 241730Z 17017G24KT 29/19 A2986 RMK A01 T02890185  RH  053%=      5-min Rain = 0
KWA1 241731Z 18014KT 29/19 A2986 RMK A01 T02900185  RH  053%=      5-min Rain = 0
KWA1 241732Z 17016KT 29/18 A2986 RMK A01 T02900183  RH  052%=      5-min Rain = 0
KWA1 241733Z 16020G25KT 29/18 A2986 RMK A01 T02900184  RH  053%=      5-min Rain = 0
KWA1 241734Z 17017G22KT 29/19 A2986 RMK A01 T02920185  RH  052%=      5-min Rain = 0
KWA1 241735Z 17015G20KT 30/19 A2986 RMK A01 T02950188  RH  052%=      5-min Rain = 0
KWA1 241736Z 16017G23KT 30/19 A2986 RMK A01 T02980188  RH  052%=      5-min Rain = 0
KWA1 241737Z 18019G24KT 30/19 A2986 RMK A01 T02980185  RH  051%=      5-min Rain = 0
KWA1 241738Z 18019KT 30/19 A2986 RMK A01 T02990188  RH  051%=      5-min Rain = 0
KWA1 241739Z 17018KT 30/19 A2986 RMK A01 T03000187  RH  051%=      5-min Rain = 0
KWA1 241740Z 18018KT 30/18 A2986 RMK A01 T02980183  RH  050%=      5-min Rain = 0
KWA1 241741Z 18016KT 30/19 A2986 RMK A01 T02970186  RH  051%=      5-min Rain = 0
KWA1 241742Z 16012G17KT 30/19 A2986 RMK A01 T03000189  RH  052%=      5-min Rain = 0
KWA1 241743Z 17020G25KT 30/19 A2985 RMK A01 T03020187  RH  050%=      5-min Rain = 0
KWA1 241744Z 17017KT 30/18 A2986 RMK A01 T03020184  RH  049%=      5-min Rain = 0
KWA1 241745Z 16012KT 30/18 A2985 RMK A01 T03000182  RH  049%=      5-min Rain = 0
KWA1 241746Z 17011KT 30/19 A2985 RMK A01 T02990188  RH  051%=      5-min Rain = 0
KWA1 241747Z 20016KT 30/19 A2985 RMK A01 T03030188  RH  050%=      5-min Rain = 0
KWA1 241748Z 20018KT 30/19 A2985 RMK A01 T03040185  RH  049%=      5-min Rain = 0
KWA1 241749Z 18016KT 30/19 A2985 RMK A01 T03030185  RH  049%=      5-min Rain = 0
KWA1 241750Z 18016KT 30/18 A2985 RMK A01 T03010184  RH  050%=      5-min Rain = 0
KWA1 241751Z 18018KT 30/18 A2985 RMK A01 T03000184  RH  050%=      5-min Rain = 0
KWA1 241752Z 17016KT 30/19 A2985 RMK A01 T03000186  RH  051%=      5-min Rain = 0
KWA1 241753Z 17013KT 30/18 A2985 RMK A01 T03010184  RH  049%=      5-min Rain = 0
KWA1 241754Z 19015KT 30/19 A2985 RMK A01 T03010187  RH  051%=      5-min Rain = 0
KWA1 241755Z 18012KT 30/19 A2985 RMK A01 T03000186  RH  050%=      5-min Rain = 0
KWA1 241756Z 18012G20KT 30/19 A2985 RMK A01 T02980185  RH  051%=      5-min Rain = 0
KWA1 241757Z 17016KT 30/19 A2985 RMK A01 T02980187  RH  051%=      5-min Rain = 0
KWA1 241758Z 17015KT 30/19 A2985 RMK A01 T03020186  RH  050%=      5-min Rain = 0
KWA1 241759Z 18013KT 30/19 A2985 RMK A01 T03030185  RH  049%=      5-min Rain = 0
KWA1 241800Z 18018G23KT 31/19 A2984 RMK A01 T03060189  RH  050%=      5-min Rain = 0
KWA1 241801Z 19014KT 31/19 A2985 RMK A01 T03090190  RH  049%=      5-min Rain = 0
KWA1 241802Z 19017KT 31/19 A2984 RMK A01 T03090186  RH  048%=      5-min Rain = 0
KWA1 241803Z 20021KT 31/19 A2984 RMK A01 T03060185  RH  048%=      5-min Rain = 0
KWA1 241804Z 19016G21KT 31/19 A2984 RMK A01 T03050185  RH  049%=      5-min Rain = 0
KWA1 241805Z 19016KT 31/19 A2984 RMK A01 T03080190  RH  050%=      5-min Rain = 0
KWA1 241806Z 17015KT 31/19 A2984 RMK A01 T03090188  RH  048%=      5-min Rain = 0
KWA1 241807Z 18017G24KT 31/19 A2984 RMK A01 T03100187  RH  048%=      5-min Rain = 0
KWA1 241808Z 18021KT 31/19 A2984 RMK A01 T03090186  RH  048%=      5-min Rain = 0
KWA1 241809Z 17014G19KT 31/18 A2984 RMK A01 T03070183  RH  048%=      5-min Rain = 0
KWA1 241810Z 17012KT 30/18 A2984 RMK A01 T03040182  RH  048%=      5-min Rain = 0
KWA1 241811Z 17012KT 30/18 A2984 RMK A01 T03040182  RH  048%=      5-min Rain = 0
KWA1 241812Z 17014KT 30/18 A2984 RMK A01 T03040184  RH  049%=      5-min Rain = 0
KWA1 241813Z 17014KT 31/19 A2984 RMK A01 T03050185  RH  049%=      5-min Rain = 0
KWA1 241814Z 15015KT 31/19 A2984 RMK A01 T03060186  RH  049%=      5-min Rain = 0
KWA1 241815Z 16018KT 31/19 A2984 RMK A01 T03070188  RH  049%=      5-min Rain = 0
KWA1 241816Z 17015KT 31/19 A2984 RMK A01 T03090187  RH  048%=      5-min Rain = 0
KWA1 241817Z 18016KT 31/19 A2984 RMK A01 T03090186  RH  048%=      5-min Rain = 0
KWA1 241818Z 19013KT 31/19 A2984 RMK A01 T03080186  RH  048%=      5-min Rain = 0
KWA1 241819Z 18011KT 31/18 A2983 RMK A01 T03060182  RH  048%=      5-min Rain = 0
KWA1 241820Z 16010KT 30/19 A2983 RMK A01 T03040185  RH  049%=      5-min Rain = 0
KWA1 241821Z 17018KT 31/19 A2983 RMK A01 T03060187  RH  049%=      5-min Rain = 0
KWA1 241822Z 18018KT 31/19 A2983 RMK A01 T03080185  RH  048%=      5-min Rain = 0
KWA1 241823Z 18016KT 31/19 A2983 RMK A01 T03080187  RH  049%=      5-min Rain = 0
KWA1 241824Z 17017G23KT 31/18 A2983 RMK A01 T03100184  RH  047%=      5-min Rain = 0
KWA1 241825Z 16012KT 31/18 A2983 RMK A01 T03090184  RH  047%=      5-min Rain = 0
KWA1 241826Z 17015KT 31/18 A2983 RMK A01 T03090184  RH  047%=      5-min Rain = 0
KWA1 241827Z 17013KT 31/18 A2983 RMK A01 T03080183  RH  047%=      5-min Rain = 0
KWA1 241828Z 16014KT 31/18 A2983 RMK A01 T03060183  RH  048%=      5-min Rain = 0
KWA1 241829Z 17017KT 31/18 A2983 RMK A01 T03050183  RH  048%=      5-min Rain = 0
KWA1 241830Z 17016KT 31/18 A2983 RMK A01 T03070180  RH  047%=      5-min Rain = 0
KWA1 241831Z 17017KT 31/19 A2983 RMK A01 T03070186  RH  048%=      5-min Rain = 0
KWA1 241832Z 17015KT 31/19 A2983 RMK A01 T03110189  RH  048%=      5-min Rain = 0
KWA1 241833Z 17016KT 31/19 A2983 RMK A01 T03120187  RH  048%=      5-min Rain = 0
KWA1 241834Z 17014KT 31/18 A2983 RMK A01 T03090184  RH  047%=      5-min Rain = 0
KWA1 241835Z 16014KT 31/18 A2983 RMK A01 T03060182  RH  048%=      5-min Rain = 0
KWA1 241836Z 17012KT 31/18 A2982 RMK A01 T03060183  RH  048%=      5-min Rain = 0
KWA1 241837Z 17017G22KT 31/18 A2982 RMK A01 T03070183  RH  048%=      5-min Rain = 0
KWA1 241838Z 18019KT 31/18 A2982 RMK A01 T03090184  RH  047%=      5-min Rain = 0
KWA1 241839Z 18017KT 31/19 A2982 RMK A01 T03090185  RH  048%=      5-min Rain = 0
KWA1 241840Z 16016KT 31/19 A2982 RMK A01 T03090187  RH  048%=      5-min Rain = 0
KWA1 241841Z 16015KT 31/18 A2982 RMK A01 T03080183  RH  047%=      5-min Rain = 0
KWA1 241842Z 17014KT 31/18 A2982 RMK A01 T03060182  RH  048%=      5-min Rain = 0
KWA1 241843Z 17016KT 31/18 A2982 RMK A01 T03060184  RH  048%=      5-min Rain = 0
KWA1 241844Z 17017KT 31/19 A2982 RMK A01 T03090186  RH  048%=      5-min Rain = 0
KWA1 241845Z 17017KT 31/18 A2982 RMK A01 T03100181  RH  046%=      5-min Rain = 0
KWA1 241846Z 17017KT 31/18 A2982 RMK A01 T03100181  RH  046%=      5-min Rain = 0
KWA1 241847Z 17017G22KT 31/18 A2982 RMK A01 T03100184  RH  047%=      5-min Rain = 0
KWA1 241848Z 17019KT 31/18 A2982 RMK A01 T03110183  RH  046%=      5-min Rain = 0
KWA1 241849Z 16018KT 31/19 A2982 RMK A01 T03120185  RH  047%=      5-min Rain = 0
KWA1 241850Z 16017KT 31/19 A2982 RMK A01 T03130186  RH  047%=      5-min Rain = 0
KWA1 241851Z 17016KT 31/18 A2982 RMK A01 T03120184  RH  047%=      5-min Rain = 0
KWA1 241852Z 17015KT 31/18 A2982 RMK A01 T03090180  RH  046%=      5-min Rain = 0
KWA1 241853Z 16015KT 31/18 A2982 RMK A01 T03070180  RH  047%=      5-min Rain = 0
KWA1 241854Z 17018KT 31/18 A2982 RMK A01 T03070181  RH  047%=      5-min Rain = 0
KWA1 241855Z 18015KT 31/18 A2982 RMK A01 T03060180  RH  047%=      5-min Rain = 0
KWA1 241856Z 18015KT 31/19 A2982 RMK A01 T03100189  RH  049%=      5-min Rain = 0
KWA1 241857Z 19014KT 32/19 A2981 RMK A01 T03160190  RH  047%=      5-min Rain = 0
KWA1 241858Z 19013KT 32/18 A2981 RMK A01 T03180182  RH  044%=      5-min Rain = 0
KWA1 241859Z 17012G18KT 32/18 A2981 RMK A01 T03150183  RH  045%=      5-min Rain = 0
KWA1 241900Z 18015KT 32/19 A2981 RMK A01 T03150186  RH  046%=      5-min Rain = 0
KWA1 241901Z 18019G24KT 32/19 A2981 RMK A01 T03160185  RH  046%=      5-min Rain = 0
KWA1 241902Z 17013G18KT 32/18 A2981 RMK A01 T03150184  RH  046%=      5-min Rain = 0
KWA1 241903Z 18014KT 31/18 A2981 RMK A01 T03110180  RH  046%=      5-min Rain = 0
KWA1 241904Z 18015KT 31/18 A2981 RMK A01 T03080182  RH  047%=      5-min Rain = 0
KWA1 241905Z 16017KT 31/18 A2981 RMK A01 T03100183  RH  047%=      5-min Rain = 0
KWA1 241906Z 17020G26KT 31/18 A298 RMK A01 T03120184  RH  047%=      5-min Rain = 0
KWA1 241907Z 19018KT 31/19 A2981 RMK A01 T03130187  RH  047%=      5-min Rain = 0
KWA1 241908Z 17015KT 32/19 A298 RMK A01 T03150185  RH  046%=      5-min Rain = 0
KWA1 241909Z 17015KT 32/19 A2981 RMK A01 T03150185  RH  046%=      5-min Rain = 0
KWA1 241910Z 16016KT 32/18 A298 RMK A01 T03150184  RH  046%=      5-min Rain = 0
KWA1 241911Z 16015KT 32/18 A298 RMK A01 T03150184  RH  046%=      5-min Rain = 0
KWA1 241912Z 17017KT 32/19 A298 RMK A01 T03160186  RH  046%=      5-min Rain = 0
KWA1 241913Z 18016KT 32/18 A298 RMK A01 T03150182  RH  045%=      5-min Rain = 0
KWA1 241914Z 17016KT 32/18 A298 RMK A01 T03150184  RH  046%=      5-min Rain = 0
KWA1 241915Z 17013G18KT 32/19 A298 RMK A01 T03170187  RH  046%=      5-min Rain = 0
KWA1 241916Z 16014KT 32/18 A298 RMK A01 T03170182  RH  045%=      5-min Rain = 0
KWA1 241917Z 17013G18KT 31/18 A298 RMK A01 T03100179  RH  046%=      5-min Rain = 0
KWA1 241918Z 18017KT 31/19 A298 RMK A01 T03100185  RH  047%=      5-min Rain = 0
KWA1 241919Z 19016KT 31/18 A298 RMK A01 T03140184  RH  046%=      5-min Rain = 0
KWA1 241920Z 20016KT 31/18 A298 RMK A01 T03140183  RH  046%=      5-min Rain = 0
KWA1 241921Z 21018KT 32/18 A2979 RMK A01 T03150184  RH  046%=      5-min Rain = 0
KWA1 241922Z 19015KT 32/19 A2979 RMK A01 T03160185  RH  046%=      5-min Rain = 0
KWA1 241923Z 18019KT 32/19 A2979 RMK A01 T03160187  RH  046%=      5-min Rain = 0
KWA1 241924Z 18020KT 32/19 A2979 RMK A01 T03190187  RH  046%=      5-min Rain = 0
KWA1 241925Z 19016KT 32/19 A2979 RMK A01 T03180189  RH  046%=      5-min Rain = 0
KWA1 241926Z 20017KT 32/18 A2979 RMK A01 T03170184  RH  045%=      5-min Rain = 0
KWA1 241927Z 20017G22KT 31/18 A2979 RMK A01 T03140184  RH  046%=      5-min Rain = 0
KWA1 241928Z 17017G22KT 32/19 A2979 RMK A01 T03160186  RH  046%=      5-min Rain = 0
KWA1 241929Z 18015KT 32/19 A2979 RMK A01 T03150186  RH  046%=      5-min Rain = 0
KWA1 241930Z 18015KT 32/18 A2979 RMK A01 T03150184  RH  046%=      5-min Rain = 0
KWA1 241931Z 18019G24KT 32/19 A2979 RMK A01 T03150185  RH  046%=      5-min Rain = 0
KWA1 241932Z 18020KT 32/19 A2979 RMK A01 T03170185  RH  045%=      5-min Rain = 0
KWA1 241933Z 19016KT 32/18 A2979 RMK A01 T03170183  RH  045%=      5-min Rain = 0
KWA1 241934Z 18017G22KT 32/19 A2979 RMK A01 T03150187  RH  046%=      5-min Rain = 0
KWA1 241935Z 18018KT 32/18 A2979 RMK A01 T03170184  RH  045%=      5-min Rain = 0
KWA1 241936Z 17017KT 32/18 A2979 RMK A01 T03160183  RH  045%=      5-min Rain = 0
KWA1 241937Z 17015KT 32/18 A2979 RMK A01 T03150183  RH  046%=      5-min Rain = 0
KWA1 241938Z 17016KT 31/18 A2979 RMK A01 T03130183  RH  046%=      5-min Rain = 0
KWA1 241939Z 18014KT 31/19 A2978 RMK A01 T03130185  RH  047%=      5-min Rain = 0
KWA1 241940Z 18018KT 31/19 A2978 RMK A01 T03140187  RH  047%=      5-min Rain = 0
KWA1 241941Z 19017KT 32/18 A2978 RMK A01 T03160184  RH  046%=      5-min Rain = 0
KWA1 241942Z 20017KT 32/18 A2978 RMK A01 T03180183  RH  045%=      5-min Rain = 0
KWA1 241943Z 20014KT 32/18 A2978 RMK A01 T03200182  RH  044%=      5-min Rain = 0
KWA1 241944Z 19013KT 32/18 A2978 RMK A01 T03200184  RH  045%=      5-min Rain = 0
KWA1 241945Z 18019G25KT 32/19 A2978 RMK A01 T03180185  RH  045%=      5-min Rain = 0
KWA1 241946Z 19021KT 32/19 A2978 RMK A01 T03150185  RH  046%=      5-min Rain = 0
KWA1 241947Z 18020KT 31/19 A2978 RMK A01 T03140186  RH  047%=      5-min Rain = 0
KWA1 241948Z 18020KT 31/19 A2978 RMK A01 T03140185  RH  046%=      5-min Rain = 0
KWA1 241949Z 18017G22KT 31/18 A2979 RMK A01 T03140183  RH  046%=      5-min Rain = 0
KWA1 241950Z 18017KT 31/19 A2978 RMK A01 T03140187  RH  047%=      5-min Rain = 0
KWA1 241951Z 18014KT 31/19 A2978 RMK A01 T03140185  RH  046%=      5-min Rain = 0
KWA1 241952Z 18013KT 31/18 A2978 RMK A01 T03130184  RH  046%=      5-min Rain = 0
KWA1 241953Z 19016G23KT 31/19 A2978 RMK A01 T03120185  RH  047%=      5-min Rain = 0
KWA1 241954Z 19018KT 31/19 A2978 RMK A01 T03130185  RH  047%=      5-min Rain = 0
KWA1 241955Z 19017KT 31/19 A2978 RMK A01 T03130188  RH  048%=      5-min Rain = 0
KWA1 241956Z 18014KT 32/19 A2978 RMK A01 T03150186  RH  046%=      5-min Rain = 0
KWA1 241957Z 18014KT 32/19 A2978 RMK A01 T03150185  RH  046%=      5-min Rain = 0
KWA1 241958Z 17018KT 32/19 A2978 RMK A01 T03150185  RH  046%=      5-min Rain = 0
KWA1 241959Z 19015KT 32/19 A2978 RMK A01 T03160189  RH  047%=      5-min Rain = 0
KWA1 242000Z 19015KT 32/19 A2978 RMK A01 T03200185  RH  045%=      5-min Rain = 0
KWA1 242001Z 18018KT 32/19 A2978 RMK A01 T03210189  RH  046%=      5-min Rain = 0
KWA1 242002Z 19017KT 32/19 A2978 RMK A01 T03210188  RH  045%=      5-min Rain = 0
KWA1 242003Z 19017KT 32/18 A2977 RMK A01 T03210184  RH  044%=      5-min Rain = 0
KWA1 242004Z 19016G22KT 32/19 A2977 RMK A01 T03210185  RH  045%=      5-min Rain = 0
KWA1 242005Z 20016G22KT 32/19 A2977 RMK A01 T03230185  RH  044%=      5-min Rain = 0
KWA1 242006Z 21018KT 32/18 A2977 RMK A01 T03240184  RH  043%=      5-min Rain = 0
KWA1 242007Z 20016KT 32/18 A2977 RMK A01 T03230181  RH  043%=      5-min Rain = 0
KWA1 242008Z 20016KT 32/18 A2977 RMK A01 T03190181  RH  044%=      5-min Rain = 0
KWA1 242009Z 20014KT 32/18 A2977 RMK A01 T03170179  RH  044%=      5-min Rain = 0
KWA1 242010Z 19011KT 32/18 A2977 RMK A01 T03170182  RH  045%=      5-min Rain = 0
KWA1 242011Z 18009KT 32/19 A2977 RMK A01 T03180187  RH  046%=      5-min Rain = 0
KWA1 242012Z 16018KT 32/19 A2976 RMK A01 T03210187  RH  045%=      5-min Rain = 0
KWA1 242013Z 15017KT 32/19 A2976 RMK A01 T03190185  RH  045%=      5-min Rain = 0
KWA1 242014Z 16017KT 32/19 A2976 RMK A01 T03170185  RH  046%=      5-min Rain = 0
KWA1 242015Z 16016KT 32/19 A2976 RMK A01 T03160186  RH  046%=      5-min Rain = 0
KWA1 242016Z 17018KT 32/18 A2976 RMK A01 T03170182  RH  045%=      5-min Rain = 0
KWA1 242017Z 17015KT 32/18 A2976 RMK A01 T03150182  RH  045%=      5-min Rain = 0
KWA1 242018Z 18016KT 32/18 A2976 RMK A01 T03150183  RH  045%=      5-min Rain = 0
KWA1 242019Z 18014KT 31/18 A2976 RMK A01 T03130181  RH  046%=      5-min Rain = 0
KWA1 242020Z 18014KT 31/18 A2975 RMK A01 T03110182  RH  046%=      5-min Rain = 0
KWA1 242021Z 19017KT 31/18 A2975 RMK A01 T03140184  RH  046%=      5-min Rain = 0
KWA1 242022Z 19015KT 31/18 A2975 RMK A01 T03140183  RH  046%=      5-min Rain = 0
KWA1 242023Z 18014KT 32/19 A2975 RMK A01 T03150185  RH  046%=      5-min Rain = 0
KWA1 242024Z 18014KT 32/19 A2975 RMK A01 T03180186  RH  046%=      5-min Rain = 0
KWA1 242025Z 18010KT 32/18 A2975 RMK A01 T03180182  RH  044%=      5-min Rain = 0
KWA1 242026Z 16012KT 32/18 A2975 RMK A01 T03160183  RH  045%=      5-min Rain = 0
KWA1 242027Z 18014KT 32/18 A2975 RMK A01 T03160181  RH  045%=      5-min Rain = 0
KWA1 242028Z 18013G19KT 32/19 A2975 RMK A01 T03180186  RH  046%=      5-min Rain = 0
KWA1 242029Z 17013KT 32/19 A2975 RMK A01 T03220188  RH  045%=      5-min Rain = 0
KWA1 242030Z 18015KT 32/19 A2975 RMK A01 T03220186  RH  044%=      5-min Rain = 0
KWA1 242031Z 20015KT 32/18 A2975 RMK A01 T03200180  RH  043%=      5-min Rain = 0
KWA1 242032Z 19015KT 32/18 A2975 RMK A01 T03200181  RH  044%=      5-min Rain = 0
KWA1 242033Z 18013KT 32/18 A2975 RMK A01 T03210184  RH  044%=      5-min Rain = 0
KWA1 242034Z 20013KT 32/18 A2975 RMK A01 T03230183  RH  043%=      5-min Rain = 0
KWA1 242035Z 17012KT 32/18 A2975 RMK A01 T03230184  RH  044%=      5-min Rain = 0
KWA1 242036Z 16013KT 32/19 A2974 RMK A01 T03220187  RH  045%=      5-min Rain = 0
KWA1 242037Z 16014KT 32/19 A2974 RMK A01 T03190189  RH  046%=      5-min Rain = 0
KWA1 242038Z 15016KT 32/19 A2974 RMK A01 T03190186  RH  045%=      5-min Rain = 0
KWA1 242039Z 14014KT 32/18 A2974 RMK A01 T03180184  RH  045%=      5-min Rain = 0
KWA1 242040Z 15011KT 31/18 A2974 RMK A01 T03130180  RH  045%=      5-min Rain = 0
KWA1 242041Z 15012KT 31/18 A2974 RMK A01 T03100182  RH  046%=      5-min Rain = 0
KWA1 242042Z 16014KT 31/19 A2974 RMK A01 T03100185  RH  047%=      5-min Rain = 0
KWA1 242043Z 17012KT 31/18 A2974 RMK A01 T03130183  RH  046%=      5-min Rain = 0
KWA1 242044Z 17014KT 32/18 A2974 RMK A01 T03150184  RH  046%=      5-min Rain = 0
KWA1 242045Z 18014KT 32/18 A2974 RMK A01 T03150184  RH  046%=      5-min Rain = 0
KWA1 242046Z 20016KT 32/18 A2974 RMK A01 T03180183  RH  045%=      5-min Rain = 0
KWA1 242047Z 20015G21KT 32/18 A2974 RMK A01 T03200182  RH  044%=      5-min Rain = 0
KWA1 242048Z 19014G19KT 32/19 A2974 RMK A01 T03200185  RH  045%=      5-min Rain = 0
KWA1 242049Z 18015KT 32/19 A2974 RMK A01 T03200185  RH  045%=      5-min Rain = 0
KWA1 242050Z 18014KT 32/18 A2974 RMK A01 T03210184  RH  044%=      5-min Rain = 0
KWA1 242051Z 19013KT 32/18 A2973 RMK A01 T03230183  RH  044%=      5-min Rain = 0
KWA1 242052Z 21010KT 32/18 A2973 RMK A01 T03220183  RH  044%=      5-min Rain = 0
KWA1 242053Z 18014G19KT 32/19 A2973 RMK A01 T03220185  RH  044%=      5-min Rain = 0
KWA1 242054Z 18017KT 32/19 A2973 RMK A01 T03230188  RH  045%=      5-min Rain = 0
KWA1 242055Z 18014KT 32/18 A2973 RMK A01 T03220183  RH  043%=      5-min Rain = 0
KWA1 242056Z 19014KT 32/19 A2973 RMK A01 T03210186  RH  045%=      5-min Rain = 0
KWA1 242057Z 17015KT 32/19 A2973 RMK A01 T03210186  RH  045%=      5-min Rain = 0
KWA1 242058Z 18019KT 32/19 A2973 RMK A01 T03240186  RH  044%=      5-min Rain = 0
KWA1 242059Z 19017KT 32/18 A2972 RMK A01 T03240181  RH  043%=      5-min Rain = 0
KWA1 242100Z 20017KT 32/18 A2972 RMK A01 T03230180  RH  043%=      5-min Rain = 0
KWA1 242101Z 19013KT 32/18 A2972 RMK A01 T03230178  RH  042%=      5-min Rain = 0
KWA1 242102Z 18014KT 32/18 A2972 RMK A01 T03230178  RH  042%=      5-min Rain = 0
KWA1 242103Z 19015KT 32/18 A2972 RMK A01 T03240182  RH  043%=      5-min Rain = 0
KWA1 242104Z 20016KT 33/18 A2972 RMK A01 T03260181  RH  042%=      5-min Rain = 0
KWA1 242105Z 19015KT 33/18 A2972 RMK A01 T03260184  RH  043%=      5-min Rain = 0
KWA1 242106Z 17014KT 32/19 A2972 RMK A01 T03230189  RH  045%=      5-min Rain = 0
KWA1 242107Z 18015G20KT 32/19 A2972 RMK A01 T03240188  RH  044%=      5-min Rain = 0
KWA1 242108Z 18018KT 32/19 A2972 RMK A01 T03240185  RH  044%=      5-min Rain = 0
KWA1 242109Z 18017KT 32/19 A2972 RMK A01 T03240185  RH  044%=      5-min Rain = 0
KWA1 242110Z 16015KT 32/18 A2972 RMK A01 T03240184  RH  043%=      5-min Rain = 0
KWA1 242111Z 17013KT 32/18 A2972 RMK A01 T03210180  RH  043%=      5-min Rain = 0
KWA1 242112Z 17014KT 32/18 A2972 RMK A01 T03180179  RH  043%=      5-min Rain = 0
KWA1 242113Z 14013KT 32/18 A2972 RMK A01 T03160179  RH  044%=      5-min Rain = 0
KWA1 242114Z 15011KT 32/18 A2972 RMK A01 T03150181  RH  045%=      5-min Rain = 0
KWA1 242115Z 17011KT 32/18 A2972 RMK A01 T03150184  RH  046%=      5-min Rain = 0
KWA1 242116Z 16014KT 32/18 A2972 RMK A01 T03150184  RH  046%=      5-min Rain = 0
KWA1 242117Z 17016KT 32/18 A2972 RMK A01 T03160182  RH  045%=      5-min Rain = 0
KWA1 242118Z 16017KT 32/18 A2971 RMK A01 T03150184  RH  046%=      5-min Rain = 0
KWA1 242119Z 15016KT 32/18 A2971 RMK A01 T03170184  RH  045%=      5-min Rain = 0
KWA1 242120Z 17012KT 32/18 A2971 RMK A01 T03160184  RH  045%=      5-min Rain = 0
KWA1 242121Z 17018KT 32/18 A2971 RMK A01 T03190184  RH  045%=      5-min Rain = 0
KWA1 242122Z 17016KT 32/18 A2971 RMK A01 T03210181  RH  044%=      5-min Rain = 0
KWA1 242123Z 18015KT 32/18 A2971 RMK A01 T03200181  RH  044%=      5-min Rain = 0
KWA1 242124Z 17017KT 32/18 A2971 RMK A01 T03200183  RH  044%=      5-min Rain = 0
KWA1 242125Z 18015KT 32/18 A2971 RMK A01 T03170179  RH  044%=      5-min Rain = 0
KWA1 242126Z 17011KT 32/18 A2971 RMK A01 T03150180  RH  045%=      5-min Rain = 0
KWA1 242127Z 17012KT 32/18 A2971 RMK A01 T03150181  RH  045%=      5-min Rain = 0
KWA1 242128Z 18014KT 32/19 A2971 RMK A01 T03170186  RH  046%=      5-min Rain = 0
KWA1 242129Z 18015KT 32/19 A2971 RMK A01 T03210187  RH  045%=      5-min Rain = 0
KWA1 242130Z 19012KT 32/18 A2971 RMK A01 T03210183  RH  044%=      5-min Rain = 0
KWA1 242131Z 18013KT 32/19 A2971 RMK A01 T03200185  RH  045%=      5-min Rain = 0
KWA1 242132Z 19014KT 32/18 A2971 RMK A01 T03190181  RH  044%=      5-min Rain = 0
KWA1 242133Z 19012KT 32/18 A2971 RMK A01 T03190183  RH  045%=      5-min Rain = 0
KWA1 242134Z 19013KT 32/18 A2972 RMK A01 T03190184  RH  045%=      5-min Rain = 0
KWA1 242135Z 19013KT 32/18 A2972 RMK A01 T03190184  RH  045%=      5-min Rain = 0
KWA1 242136Z 20013KT 32/18 A2971 RMK A01 T03190182  RH  044%=      5-min Rain = 0
KWA1 242137Z 20013KT 32/18 A2971 RMK A01 T03180180  RH  044%=      5-min Rain = 0
KWA1 242138Z 19015KT 32/18 A2971 RMK A01 T03170181  RH  045%=      5-min Rain = 0
KWA1 242139Z 19012KT 32/18 A2971 RMK A01 T03150181  RH  045%=      5-min Rain = 0
KWA1 242140Z 18013KT 32/18 A2971 RMK A01 T03150182  RH  045%=      5-min Rain = 0
KWA1 242141Z 17015KT 32/18 A2971 RMK A01 T03160183  RH  045%=      5-min Rain = 0
KWA1 242142Z 18015KT 32/19 A2971 RMK A01 T03170186  RH  046%=      5-min Rain = 0
KWA1 242143Z 17013KT 32/19 A2971 RMK A01 T03210186  RH  045%=      5-min Rain = 0
KWA1 242144Z 17013KT 32/19 A2972 RMK A01 T03230189  RH  045%=      5-min Rain = 0
KWA1 242145Z 17013KT 33/19 A2971 RMK A01 T03260185  RH  043%=      5-min Rain = 0
KWA1 242146Z 17016KT 33/19 A2971 RMK A01 T03270185  RH  043%=      5-min Rain = 0
KWA1 242147Z 19019KT 32/18 A2971 RMK A01 T03240180  RH  042%=      5-min Rain = 0
KWA1 242148Z 19017KT 32/18 A2971 RMK A01 T03230181  RH  043%=      5-min Rain = 0
KWA1 242149Z 20017KT 32/18 A2971 RMK A01 T03230180  RH  043%=      5-min Rain = 0
KWA1 242150Z 21016KT 32/18 A2971 RMK A01 T03230180  RH  043%=      5-min Rain = 0
KWA1 242151Z 20013KT 32/18 A2971 RMK A01 T03220179  RH  042%=      5-min Rain = 0
KWA1 242152Z 20014KT 32/18 A2971 RMK A01 T03210179  RH  043%=      5-min Rain = 0
KWA1 242153Z 17018KT 32/18 A2971 RMK A01 T03200181  RH  044%=      5-min Rain = 0
KWA1 242154Z 17018KT 32/18 A2971 RMK A01 T03180181  RH  044%=      5-min Rain = 0
KWA1 242155Z 17016KT 32/18 A2971 RMK A01 T03150180  RH  044%=      5-min Rain = 0
KWA1 242156Z 17014KT 31/18 A2971 RMK A01 T03130179  RH  045%=      5-min Rain = 0
KWA1 242157Z 17014KT 31/18 A2971 RMK A01 T03120180  RH  045%=      5-min Rain = 0
KWA1 242158Z 17011KT 31/18 A2971 RMK A01 T03120182  RH  046%=      5-min Rain = 0
KWA1 242159Z 17011KT 31/18 A2971 RMK A01 T03130181  RH  045%=      5-min Rain = 0
KWA1 242200Z 18012G18KT 31/18 A2971 RMK A01 T03120182  RH  046%=      5-min Rain = 0
KWA1 242201Z 19014KT 31/18 A2971 RMK A01 T03120180  RH  045%=      5-min Rain = 0
KWA1 242202Z 19015KT 31/18 A2971 RMK A01 T03130180  RH  045%=      5-min Rain = 0
KWA1 242203Z 19014KT 31/18 A2971 RMK A01 T03130180  RH  045%=      5-min Rain = 0
KWA1 242204Z 19012KT 31/18 A2971 RMK A01 T03130180  RH  045%=      5-min Rain = 0
KWA1 242205Z 18014G21KT 31/18 A2971 RMK A01 T03130182  RH  045%=      5-min Rain = 0
KWA1 242206Z 19019KT 31/18 A2971 RMK A01 T03140180  RH  045%=      5-min Rain = 0
KWA1 242207Z 20016KT 31/18 A2971 RMK A01 T03130180  RH  045%=      5-min Rain = 0
KWA1 242208Z 21017KT 31/18 A2971 RMK A01 T03120179  RH  045%=      5-min Rain = 0
KWA1 242209Z 20015KT 31/18 A2971 RMK A01 T03120179  RH  045%=      5-min Rain = 0
KWA1 242210Z 19019G24KT 31/18 A2971 RMK A01 T03110183  RH  046%=      5-min Rain = 0
KWA1 242211Z 19017KT 31/18 A2971 RMK A01 T03110183  RH  046%=      5-min Rain = 0
KWA1 242212Z 19015KT 31/18 A2971 RMK A01 T03100183  RH  047%=      5-min Rain = 0
KWA1 242213Z 19016KT 31/18 A2971 RMK A01 T03100184  RH  047%=      5-min Rain = 0
KWA1 242214Z 18016KT 31/18 A2971 RMK A01 T03090184  RH  047%=      5-min Rain = 0
KWA1 242215Z 19017KT 31/18 A297 RMK A01 T03100183  RH  047%=      5-min Rain = 0
KWA1 242216Z 19015KT 31/18 A297 RMK A01 T03090183  RH  047%=      5-min Rain = 0
KWA1 242217Z 18014KT 31/18 A297 RMK A01 T03090184  RH  047%=      5-min Rain = 0
KWA1 242218Z 18013KT 31/18 A297 RMK A01 T03090184  RH  047%=      5-min Rain = 0
KWA1 242219Z 19014KT 31/18 A297 RMK A01 T03100183  RH  047%=      5-min Rain = 0
KWA1 242220Z 19014KT 31/18 A297 RMK A01 T03100184  RH  047%=      5-min Rain = 0
KWA1 242221Z 18015KT 31/18 A297 RMK A01 T03110183  RH  047%=      5-min Rain = 0
KWA1 242222Z 19012KT 31/19 A297 RMK A01 T03110185  RH  047%=      5-min Rain = 0
KWA1 242223Z 19014KT 31/19 A2971 RMK A01 T03110187  RH  048%=      5-min Rain = 0
KWA1 242224Z 19017KT 31/19 A297 RMK A01 T03110186  RH  047%=      5-min Rain = 0
KWA1 242225Z 19017KT 31/18 A2971 RMK A01 T03100183  RH  047%=      5-min Rain = 0
KWA1 242226Z 19017KT 31/18 A2971 RMK A01 T03100184  RH  047%=      5-min Rain = 0
KWA1 242227Z 19016KT 31/18 A297 RMK A01 T03090183  RH  047%=      5-min Rain = 0
KWA1 242228Z 19016KT 31/19 A297 RMK A01 T03090185  RH  048%=      5-min Rain = 0
KWA1 242229Z 19015KT 31/19 A297 RMK A01 T03090186  RH  048%=      5-min Rain = 0
KWA1 242230Z 20015KT 31/19 A297 RMK A01 T03090185  RH  048%=      5-min Rain = 0
KWA1 242231Z 20013KT 31/18 A2971 RMK A01 T03090184  RH  047%=      5-min Rain = 0
KWA1 242232Z 19013KT 31/19 A2971 RMK A01 T03100187  RH  048%=      5-min Rain = 0
KWA1 242233Z 19012KT 31/19 A2971 RMK A01 T03110187  RH  048%=      5-min Rain = 0
KWA1 242234Z 20012KT 31/19 A2971 RMK A01 T03110186  RH  047%=      5-min Rain = 0
KWA1 242235Z 19013G19KT 31/19 A297 RMK A01 T03120187  RH  047%=      5-min Rain = 0
KWA1 242236Z 20017KT 31/19 A297 RMK A01 T03110187  RH  048%=      5-min Rain = 0
KWA1 242237Z 19018KT 31/19 A297 RMK A01 T03110186  RH  047%=      5-min Rain = 0
KWA1 242238Z 20014KT 31/19 A297 RMK A01 T03100185  RH  047%=      5-min Rain = 0
KWA1 242239Z 20015KT 31/18 A297 RMK A01 T03100184  RH  047%=      5-min Rain = 0
KWA1 242240Z 20017KT 31/19 A297 RMK A01 T03100185  RH  047%=      5-min Rain = 0
KWA1 242241Z 20015KT 31/18 A297 RMK A01 T03100184  RH  047%=      5-min Rain = 0
KWA1 242242Z 20015KT 31/18 A297 RMK A01 T03100183  RH  047%=      5-min Rain = 0
KWA1 242243Z 20016KT 31/18 A297 RMK A01 T03100182  RH  047%=      5-min Rain = 0
KWA1 242244Z 19014KT 31/18 A297 RMK A01 T03090182  RH  047%=      5-min Rain = 0
KWA1 242245Z 19012KT 31/19 A297 RMK A01 T03090185  RH  048%=      5-min Rain = 0
KWA1 242246Z 19011KT 31/19 A297 RMK A01 T03090187  RH  048%=      5-min Rain = 0
KWA1 242247Z 19013KT 31/19 A297 RMK A01 T03090188  RH  048%=      5-min Rain = 0
KWA1 242248Z 19013KT 31/19 A297 RMK A01 T03090189  RH  049%=      5-min Rain = 0
KWA1 242249Z 18014KT 31/19 A297 RMK A01 T03090190  RH  049%=      5-min Rain = 0
KWA1 242250Z 18016KT 31/19 A297 RMK A01 T03090189  RH  049%=      5-min Rain = 0
KWA1 242251Z 18016KT 31/19 A297 RMK A01 T03080187  RH  049%=      5-min Rain = 0
KWA1 242252Z 17014KT 31/19 A297 RMK A01 T03070186  RH  048%=      5-min Rain = 0
KWA1 242253Z 17015KT 31/19 A297 RMK A01 T03070185  RH  048%=      5-min Rain = 0
KWA1 242254Z 18012KT 31/19 A297 RMK A01 T03070185  RH  048%=      5-min Rain = 0
KWA1 242255Z 17015KT 31/19 A297 RMK A01 T03070187  RH  049%=      5-min Rain = 0
KWA1 242256Z 18014KT 31/19 A297 RMK A01 T03070187  RH  049%=      5-min Rain = 0
KWA1 242257Z 18013KT 31/19 A297 RMK A01 T03070187  RH  049%=      5-min Rain = 0
KWA1 242258Z 18011KT 31/19 A2969 RMK A01 T03070187  RH  049%=      5-min Rain = 0
KWA1 242259Z 18010KT 31/19 A2969 RMK A01 T03070189  RH  049%=      5-min Rain = 0
KWA1 242300Z 17012KT 31/19 A2969 RMK A01 T03070187  RH  049%=      5-min Rain = 0
KWA1 242301Z 18015KT 31/19 A2969 RMK A01 T03070185  RH  048%=      5-min Rain = 0
KWA1 242302Z 18014KT 31/19 A2969 RMK A01 T03070186  RH  049%=      5-min Rain = 0
KWA1 242303Z 19012KT 31/19 A2969 RMK A01 T03060187  RH  049%=      5-min Rain = 0
KWA1 242304Z 18013KT 31/19 A2969 RMK A01 T03060186  RH  049%=      5-min Rain = 0
KWA1 242305Z 18014KT 31/19 A2969 RMK A01 T03060185  RH  048%=      5-min Rain = 0
KWA1 242306Z 18013KT 31/19 A2969 RMK A01 T03060185  RH  048%=      5-min Rain = 0
KWA1 242307Z 18015KT 31/19 A2969 RMK A01 T03060186  RH  049%=      5-min Rain = 0
KWA1 242308Z 18016G21KT 31/18 A2969 RMK A01 T03060184  RH  048%=      5-min Rain = 0
KWA1 242309Z 17018KT 31/18 A297 RMK A01 T03060181  RH  047%=      5-min Rain = 0
KWA1 242310Z 18016KT 31/18 A297 RMK A01 T03050181  RH  047%=      5-min Rain = 0
KWA1 242311Z 17013KT 31/18 A297 RMK A01 T03050182  RH  048%=      5-min Rain = 0
KWA1 242312Z 18015G20KT 31/18 A297 RMK A01 T03050184  RH  048%=      5-min Rain = 0
KWA1 242313Z 18015KT 30/19 A297 RMK A01 T03040185  RH  049%=      5-min Rain = 0
KWA1 242314Z 18016KT 30/19 A297 RMK A01 T03040186  RH  049%=      5-min Rain = 0
KWA1 242315Z 18014KT 30/19 A297 RMK A01 T03040186  RH  050%=      5-min Rain = 0
KWA1 242316Z 19013KT 30/19 A297 RMK A01 T03030187  RH  050%=      5-min Rain = 0
KWA1 242317Z 18011KT 30/19 A297 RMK A01 T03020186  RH  050%=      5-min Rain = 0
KWA1 242318Z 19014G19KT 30/19 A297 RMK A01 T03020187  RH  050%=      5-min Rain = 0
KWA1 242319Z 19016KT 30/19 A297 RMK A01 T03020187  RH  050%=      5-min Rain = 0
KWA1 242320Z 19016KT 30/19 A297 RMK A01 T03010187  RH  050%=      5-min Rain = 0
KWA1 242321Z 19014KT 30/19 A297 RMK A01 T03010187  RH  051%=      5-min Rain = 0
KWA1 242322Z 19015KT 30/19 A297 RMK A01 T03010188  RH  051%=      5-min Rain = 0
KWA1 242323Z 18017KT 30/19 A297 RMK A01 T03000188  RH  051%=      5-min Rain = 0
KWA1 242324Z 18017KT 30/19 A297 RMK A01 T03000188  RH  051%=      5-min Rain = 0
KWA1 242325Z 18014KT 30/19 A297 RMK A01 T03000188  RH  051%=      5-min Rain = 0
KWA1 242326Z 19015KT 30/19 A297 RMK A01 T03000189  RH  052%=      5-min Rain = 0
KWA1 242327Z 19018KT 30/19 A297 RMK A01 T02990187  RH  051%=      5-min Rain = 0
KWA1 242328Z 18019KT 30/19 A297 RMK A01 T02990187  RH  051%=      5-min Rain = 0
KWA1 242329Z 19017KT 30/19 A2971 RMK A01 T02980186  RH  051%=      5-min Rain = 0
KWA1 242330Z 19018KT 30/19 A2971 RMK A01 T02980186  RH  051%=      5-min Rain = 0
KWA1 242331Z 20018KT 30/19 A2971 RMK A01 T02980187  RH  051%=      5-min Rain = 0
KWA1 242332Z 21021KT 30/19 A2971 RMK A01 T02970186  RH  051%=      5-min Rain = 0
KWA1 242333Z 23031G42KT 30/18 A2973 RMK A01 T02970179  RH  049%=      5-min Rain = 0
KWA1 242334Z 24037G44KT 27/14 A2973 RMK A01 T02690135  RH  044%=      5-min Rain = 0
KWA1 242335Z 24034G41KT 24/13 A2973 RMK A01 T02400133  RH  051%=      5-min Rain = 0
KWA1 242336Z 23030G35KT 23/14 A2974 RMK A01 T02300135  RH  055%=      5-min Rain = 0
KWA1 242337Z 23038G46KT 23/14 A2973 RMK A01 T02250136  RH  057%=      5-min Rain = 0
KWA1 242338Z 23027G32KT 22/14 A2974 RMK A01 T02220138  RH  059%=      5-min Rain = 0
KWA1 242339Z 25030G35KT 22/14 A2974 RMK A01 T02210138  RH  059%=      5-min Rain = 0
KWA1 242340Z 25031G38KT 22/14 A2973 RMK A01 T02180137  RH  060%=      5-min Rain = 0
KWA1 242341Z 25033G43KT 22/14 A2973 RMK A01 T02170139  RH  061%=      5-min Rain = 0
KWA1 242342Z 25035G43KT 22/14 A2973 RMK A01 T02160138  RH  061%=      5-min Rain = 0
KWA1 242343Z 25036KT 22/14 A2973 RMK A01 T02150139  RH  062%=      5-min Rain = 0
KWA1 242344Z 25034KT 21/14 A2974 RMK A01 T02140140  RH  062%=      5-min Rain = 0
KWA1 242345Z 25033KT 21/14 A2974 RMK A01 T02130139  RH  063%=      5-min Rain = 0
KWA1 242346Z 25029G34KT 21/14 A2974 RMK A01 T02120139  RH  063%=      5-min Rain = 0
KWA1 242347Z 25028G33KT 21/14 A2974 RMK A01 T02110139  RH  063%=      5-min Rain = 0
KWA1 242348Z 25028G34KT 21/14 A2974 RMK A01 T02110140  RH  064%=      5-min Rain = 0
KWA1 242349Z 26031KT 21/14 A2974 RMK A01 T02110139  RH  063%=      5-min Rain = 0
KWA1 242350Z 26031KT 21/14 A2974 RMK A01 T02120140  RH  064%=      5-min Rain = 0
KWA1 242351Z 26027G35KT 21/14 A2974 RMK A01 T02100142  RH  065%=      5-min Rain = 0
KWA1 242352Z 27029KT 21/15 A2974 RMK A01 T02070145  RH  068%=      5-min Rain = 0
KWA1 242353Z 27029G35KT 21/15 A2974 RMK A01 T02050147  RH  069%=      5-min Rain = 0
KWA1 242354Z 27031G36KT 20/15 A2975 RMK A01 T02030147  RH  070%=      5-min Rain = 0
KWA1 242355Z 27023KT 20/15 A2975 RMK A01 T02000145  RH  071%=      5-min Rain = 0
KWA1 242356Z 28028G34KT 20/15 A2975 RMK A01 T01980148  RH  073%=      5-min Rain = 0
KWA1 242357Z 28026G33KT 20/15 A2975 RMK A01 T01960148  RH  074%=      5-min Rain = 0
KWA1 242358Z 29026G32KT 19/15 A2975 RMK A01 T01930148  RH  075%=      5-min Rain = 0
KWA1 242359Z 28020G28KT 19/15 A2975 RMK A01 T01910151  RH  077%=      5-min Rain = 0
KWA1 250000Z 29022KT 19/15 A2975 RMK A01 T01890153  RH  080%=      5-min Rain = 0
KWA1 250001Z 28022KT 19/15 A2975 RMK A01 T01860153  RH  081%=      5-min Rain = 0.02
KWA1 250002Z 28019KT 18/16 A2975 RMK A01 T01840158  RH  085%=      5-min Rain = 0.01
KWA1 250003Z 27019G25KT 18/16 A2975 RMK A01 T01820158  RH  086%=      5-min Rain = 0.01
KWA1 250004Z 27018G23KT 18/16 A2975 RMK A01 T01800158  RH  087%=      5-min Rain = 0.01
KWA1 250005Z 27018G23KT 18/16 A2975 RMK A01 T01790158  RH  088%=      5-min Rain = 0.01
KWA1 250006Z 27022KT 18/16 A2974 RMK A01 T01780157  RH  087%=      5-min Rain = 0.01
KWA1 250007Z 27022G27KT 18/16 A2974 RMK A01 T01780157  RH  087%=      5-min Rain = 0.01
KWA1 250008Z 27021G28KT 18/16 A2974 RMK A01 T01770158  RH  088%=      5-min Rain = 0.01
KWA1 250009Z 27022KT 18/16 A2974 RMK A01 T01770157  RH  088%=      5-min Rain = 0.01
KWA1 250010Z 26022G29KT 18/16 A2974 RMK A01 T01790158  RH  087%=      5-min Rain = 0
KWA1 250011Z 26024KT 18/16 A2974 RMK A01 T01790155  RH  086%=      5-min Rain = 0.01
KWA1 250012Z 26023G28KT 18/16 A2974 RMK A01 T01810155  RH  085%=      5-min Rain = 0
KWA1 250013Z 26021KT 18/15 A2974 RMK A01 T01810154  RH  084%=      5-min Rain = 0
KWA1 250014Z 26020KT 18/15 A2974 RMK A01 T01820154  RH  084%=      5-min Rain = 0
KWA1 250015Z 27017KT 18/16 A2974 RMK A01 T01820157  RH  085%=      5-min Rain = 0.01
KWA1 250016Z 26018KT 18/16 A2975 RMK A01 T01830156  RH  084%=      5-min Rain = 0
KWA1 250017Z 26017KT 18/16 A2975 RMK A01 T01830156  RH  084%=      5-min Rain = 0
KWA1 250018Z 26019KT 18/16 A2975 RMK A01 T01830155  RH  083%=      5-min Rain = 0
KWA1 250019Z 26017KT 18/15 A2975 RMK A01 T01840154  RH  082%=      5-min Rain = 0.01
KWA1 250020Z 25018KT 19/15 A2975 RMK A01 T01850154  RH  082%=      5-min Rain = 0.01
KWA1 250021Z 25020G25KT 19/15 A2975 RMK A01 T01850154  RH  082%=      5-min Rain = 0.01
KWA1 250022Z 25022KT 19/15 A2975 RMK A01 T01860151  RH  080%=      5-min Rain = 0
KWA1 250023Z 25023KT 19/15 A2975 RMK A01 T01860150  RH  079%=      5-min Rain = 0.01
KWA1 250024Z 26024KT 19/15 A2974 RMK A01 T01870149  RH  079%=      5-min Rain = 0
KWA1 250025Z 26021KT 19/15 A2974 RMK A01 T01870150  RH  079%=      5-min Rain = 0
KWA1 250026Z 26024KT 19/15 A2974 RMK A01 T01870151  RH  079%=      5-min Rain = 0
KWA1 250027Z 26022KT 19/15 A2974 RMK A01 T01870152  RH  080%=      5-min Rain = 0.01
KWA1 250028Z 26025G30KT 19/15 A2974 RMK A01 T01860151  RH  080%=      5-min Rain = 0
KWA1 250029Z 26025G30KT 19/15 A2973 RMK A01 T01860150  RH  079%=      5-min Rain = 0
KWA1 250030Z 26026G32KT 19/15 A2973 RMK A01 T01860148  RH  079%=      5-min Rain = 0
KWA1 250031Z 25023KT 19/15 A2973 RMK A01 T01870151  RH  080%=      5-min Rain = 0
KWA1 250032Z 26023G28KT 19/15 A2973 RMK A01 T01860152  RH  080%=      5-min Rain = 0
KWA1 250033Z 26023KT 19/15 A2973 RMK A01 T01860151  RH  080%=      5-min Rain = 0.01
KWA1 250034Z 26023KT 19/15 A2973 RMK A01 T01860149  RH  079%=      5-min Rain = 0
KWA1 250035Z 26022G27KT 19/15 A2973 RMK A01 T01870149  RH  079%=      5-min Rain = 0
KWA1 250036Z 26021KT 19/15 A2973 RMK A01 T01870151  RH  080%=      5-min Rain = 0
KWA1 250037Z 26020KT 19/15 A2973 RMK A01 T01860151  RH  080%=      5-min Rain = 0
KWA1 250038Z 27022KT 19/15 A2973 RMK A01 T01860149  RH  079%=      5-min Rain = 0
KWA1 250039Z 26022G28KT 19/15 A2972 RMK A01 T01860147  RH  078%=      5-min Rain = 0
KWA1 250040Z 26024G29KT 19/15 A2972 RMK A01 T01870147  RH  078%=      5-min Rain = 0
KWA1 250041Z 26022G27KT 19/15 A2972 RMK A01 T01880146  RH  077%=      5-min Rain = 0
KWA1 250042Z 26022G31KT 19/15 A2972 RMK A01 T01890145  RH  076%=      5-min Rain = 0
KWA1 250043Z 27024KT 19/15 A2972 RMK A01 T01890145  RH  076%=      5-min Rain = 0
KWA1 250044Z 27023G30KT 19/14 A2972 RMK A01 T01900144  RH  074%=      5-min Rain = 0
KWA1 250045Z 27021KT 19/15 A2972 RMK A01 T01900146  RH  076%=      5-min Rain = 0
KWA1 250046Z 27020G25KT 19/15 A2972 RMK A01 T01900145  RH  075%=      5-min Rain = 0
KWA1 250047Z 27017G22KT 19/15 A2972 RMK A01 T01900147  RH  076%=      5-min Rain = 0
KWA1 250048Z 27020KT 19/15 A2972 RMK A01 T01890145  RH  076%=      5-min Rain = 0.01
KWA1 250049Z 27019KT 19/14 A2972 RMK A01 T01890144  RH  075%=      5-min Rain = 0
KWA1 250050Z 27019G24KT 19/14 A2971 RMK A01 T01900142  RH  074%=      5-min Rain = 0
KWA1 250051Z 28021KT 19/14 A2971 RMK A01 T01910141  RH  073%=      5-min Rain = 0
KWA1 250052Z 27021KT 19/14 A2972 RMK A01 T01920142  RH  073%=      5-min Rain = 0
KWA1 250053Z 27018G23KT 19/14 A2971 RMK A01 T01930142  RH  072%=      5-min Rain = 0
KWA1 250054Z 28020KT 19/14 A2971 RMK A01 T01930142  RH  072%=      5-min Rain = 0
KWA1 250055Z 28023G29KT 20/14 A2971 RMK A01 T01950140  RH  071%=      5-min Rain = 0
KWA1 250056Z 28020KT 20/14 A2971 RMK A01 T01960141  RH  071%=      5-min Rain = 0
KWA1 250057Z 28021G27KT 20/14 A297 RMK A01 T01960140  RH  070%=      5-min Rain = 0
KWA1 250058Z 28020KT 20/14 A297 RMK A01 T01970143  RH  071%=      5-min Rain = 0
KWA1 250059Z 28019G25KT 20/14 A297 RMK A01 T01960143  RH  071%=      5-min Rain = 0
KWA1 250100Z 29022KT 20/14 A297 RMK A01 T01960143  RH  072%=      5-min Rain = 0
KWA1 250101Z 28019KT 20/14 A297 RMK A01 T01960142  RH  071%=      5-min Rain = 0
KWA1 250102Z 28017KT 20/14 A297 RMK A01 T01970144  RH  072%=      5-min Rain = 0
KWA1 250103Z 28017KT 20/15 A297 RMK A01 T01960145  RH  072%=      5-min Rain = 0
KWA1 250104Z 28015KT 20/15 A297 RMK A01 T01960145  RH  072%=      5-min Rain = 0
KWA1 250105Z 28018G23KT 20/14 A297 RMK A01 T01950143  RH  072%=      5-min Rain = 0
KWA1 250106Z 27018KT 20/14 A297 RMK A01 T01960141  RH  071%=      5-min Rain = 0
KWA1 250107Z 27016KT 20/14 A2971 RMK A01 T01970142  RH  070%=      5-min Rain = 0
KWA1 250108Z 27015KT 20/14 A2971 RMK A01 T01970144  RH  071%=      5-min Rain = 0
KWA1 250109Z 28014KT 20/14 A2971 RMK A01 T01960143  RH  071%=      5-min Rain = 0
KWA1 250110Z 28015KT 20/14 A2971 RMK A01 T01960143  RH  071%=      5-min Rain = 0
KWA1 250111Z 28012KT 20/14 A297 RMK A01 T01950144  RH  072%=      5-min Rain = 0
KWA1 250112Z 29013KT 19/15 A297 RMK A01 T01940145  RH  073%=      5-min Rain = 0
KWA1 250113Z 30014KT 19/14 A297 RMK A01 T01940144  RH  073%=      5-min Rain = 0
KWA1 250114Z 30014KT 19/14 A2969 RMK A01 T01940144  RH  073%=      5-min Rain = 0
KWA1 250115Z 31013KT 19/15 A2969 RMK A01 T01930145  RH  074%=      5-min Rain = 0
KWA1 250116Z 31013KT 19/15 A2969 RMK A01 T01930146  RH  074%=      5-min Rain = 0
KWA1 250117Z 31013KT 19/14 A2969 RMK A01 T01930143  RH  072%=      5-min Rain = 0
KWA1 250118Z 31013KT 20/14 A2969 RMK A01 T01950143  RH  072%=      5-min Rain = 0
KWA1 250119Z 30012KT 20/15 A2969 RMK A01 T01960146  RH  073%=      5-min Rain = 0
KWA1 250120Z 30011KT 20/15 A2969 RMK A01 T01950147  RH  073%=      5-min Rain = 0
KWA1 250121Z 30011KT 20/15 A2969 RMK A01 T01950146  RH  073%=      5-min Rain = 0
KWA1 250122Z 30010KT 20/15 A2969 RMK A01 T01950146  RH  073%=      5-min Rain = 0
KWA1 250123Z 29010KT 20/15 A297 RMK A01 T01960147  RH  073%=      5-min Rain = 0
KWA1 250124Z 29008KT 20/15 A2969 RMK A01 T01960147  RH  073%=      5-min Rain = 0
KWA1 250125Z 26006KT 20/15 A297 RMK A01 T01960148  RH  074%=      5-min Rain = 0
KWA1 250126Z 23008KT 20/15 A297 RMK A01 T01950150  RH  075%=      5-min Rain = 0
KWA1 250127Z 22010KT 19/15 A297 RMK A01 T01930151  RH  077%=      5-min Rain = 0
KWA1 250128Z 22011KT 19/15 A2971 RMK A01 T01920150  RH  076%=      5-min Rain = 0
KWA1 250129Z 23012KT 19/15 A2971 RMK A01 T01910152  RH  078%=      5-min Rain = 0
KWA1 250130Z 23010KT 19/15 A2971 RMK A01 T01900151  RH  078%=      5-min Rain = 0
KWA1 250131Z 23008G14KT 19/15 A2971 RMK A01 T01900149  RH  077%=      5-min Rain = 0
KWA1 250132Z 22013KT 19/15 A2971 RMK A01 T01900152  RH  078%=      5-min Rain = 0
KWA1 250133Z 22013KT 19/15 A2971 RMK A01 T01890150  RH  078%=      5-min Rain = 0
KWA1 250134Z 23015KT 19/15 A2971 RMK A01 T01880152  RH  079%=      5-min Rain = 0
KWA1 250135Z 23015KT 19/15 A297 RMK A01 T01870149  RH  079%=      5-min Rain = 0
KWA1 250136Z 23013KT 19/15 A297 RMK A01 T01870148  RH  078%=      5-min Rain = 0
KWA1 250137Z 24012KT 19/15 A297 RMK A01 T01870150  RH  079%=      5-min Rain = 0
KWA1 250138Z 24011KT 19/15 A2969 RMK A01 T01860154  RH  081%=      5-min Rain = 0
KWA1 250139Z 24013KT 18/15 A2969 RMK A01 T01840152  RH  081%=      5-min Rain = 0
KWA1 250140Z 23013KT 18/15 A2969 RMK A01 T01840151  RH  081%=      5-min Rain = 0
KWA1 250141Z 23013KT 18/15 A2969 RMK A01 T01840151  RH  081%=      5-min Rain = 0
KWA1 250142Z 23012KT 18/15 A2969 RMK A01 T01830151  RH  081%=      5-min Rain = 0
KWA1 250143Z 23013KT 18/15 A2969 RMK A01 T01830150  RH  081%=      5-min Rain = 0
KWA1 250144Z 24014KT 18/15 A2969 RMK A01 T01830151  RH  082%=      5-min Rain = 0
KWA1 250145Z 24013KT 18/15 A2969 RMK A01 T01830150  RH  082%=      5-min Rain = 0
KWA1 250146Z 24011KT 18/15 A2969 RMK A01 T01820150  RH  082%=      5-min Rain = 0
KWA1 250147Z 24010KT 18/15 A2969 RMK A01 T01820151  RH  082%=      5-min Rain = 0
KWA1 250148Z 24010KT 18/15 A2969 RMK A01 T01810151  RH  082%=      5-min Rain = 0
KWA1 250149Z 24010KT 18/15 A2969 RMK A01 T01810152  RH  083%=      5-min Rain = 0
KWA1 250150Z 23011KT 18/15 A2969 RMK A01 T01810151  RH  083%=      5-min Rain = 0
KWA1 250151Z 23008KT 18/15 A2969 RMK A01 T01810150  RH  082%=      5-min Rain = 0
KWA1 250152Z 23006KT 18/15 A2969 RMK A01 T01820151  RH  082%=      5-min Rain = 0
KWA1 250153Z 23007KT 18/15 A2969 RMK A01 T01810150  RH  082%=      5-min Rain = 0
KWA1 250154Z 23006KT 18/15 A2969 RMK A01 T01810149  RH  081%=      5-min Rain = 0
KWA1 250155Z 23007KT 18/15 A2968 RMK A01 T01820150  RH  082%=      5-min Rain = 0
KWA1 250156Z 24007KT 18/15 A2968 RMK A01 T01820148  RH  080%=      5-min Rain = 0
KWA1 250157Z 24006KT 18/15 A2968 RMK A01 T01820149  RH  081%=      5-min Rain = 0
KWA1 250158Z 25006KT 18/15 A2968 RMK A01 T01820149  RH  081%=      5-min Rain = 0
KWA1 250159Z 25006KT 18/15 A2968 RMK A01 T01820150  RH  082%=      5-min Rain = 0
KWA1 250200Z 25007KT 18/15 A2968 RMK A01 T01820148  RH  081%=      5-min Rain = 0
KWA1 250201Z 24006KT 18/15 A2968 RMK A01 T01810150  RH  082%=      5-min Rain = 0
KWA1 250202Z 24007KT 18/15 A2968 RMK A01 T01810150  RH  082%=      5-min Rain = 0
KWA1 250203Z 22007KT 18/15 A2968 RMK A01 T01810151  RH  083%=      5-min Rain = 0
KWA1 250204Z 22007KT 18/15 A2968 RMK A01 T01800152  RH  083%=      5-min Rain = 0
KWA1 250205Z 22008KT 18/15 A2967 RMK A01 T01800151  RH  083%=      5-min Rain = 0
KWA1 250206Z 22007KT 18/15 A2967 RMK A01 T01800150  RH  083%=      5-min Rain = 0
KWA1 250207Z 22007KT 18/15 A2967 RMK A01 T01790147  RH  081%=      5-min Rain = 0
KWA1 250208Z 22007KT 18/15 A2967 RMK A01 T01800146  RH  081%=      5-min Rain = 0
KWA1 250209Z 22009KT 18/15 A2966 RMK A01 T01800148  RH  081%=      5-min Rain = 0
KWA1 250210Z 22008KT 18/15 A2966 RMK A01 T01800145  RH  080%=      5-min Rain = 0
KWA1 250211Z 21007KT 18/15 A2966 RMK A01 T01800148  RH  082%=      5-min Rain = 0
KWA1 250212Z 21008KT 18/15 A2966 RMK A01 T01790150  RH  083%=      5-min Rain = 0
KWA1 250213Z 21008KT 18/15 A2966 RMK A01 T01780151  RH  084%=      5-min Rain = 0
KWA1 250214Z 22008KT 18/15 A2965 RMK A01 T01770151  RH  085%=      5-min Rain = 0
KWA1 250215Z 22007KT 18/15 A2965 RMK A01 T01770151  RH  084%=      5-min Rain = 0
KWA1 250216Z 22007KT 18/15 A2965 RMK A01 T01770152  RH  085%=      5-min Rain = 0
KWA1 250217Z 23007KT 18/15 A2964 RMK A01 T01760151  RH  085%=      5-min Rain = 0
KWA1 250218Z 23007KT 18/15 A2964 RMK A01 T01760150  RH  085%=      5-min Rain = 0
KWA1 250219Z 23007KT 18/15 A2964 RMK A01 T01770151  RH  085%=      5-min Rain = 0
KWA1 250220Z 22007KT 18/15 A2964 RMK A01 T01760150  RH  085%=      5-min Rain = 0
KWA1 250221Z 22007KT 18/15 A2964 RMK A01 T01760150  RH  084%=      5-min Rain = 0
KWA1 250222Z 22006KT 18/15 A2964 RMK A01 T01760150  RH  084%=      5-min Rain = 0
KWA1 250223Z 21007KT 18/15 A2964 RMK A01 T01760151  RH  085%=      5-min Rain = 0
KWA1 250224Z 21006KT 18/15 A2964 RMK A01 T01760150  RH  085%=      5-min Rain = 0
KWA1 250225Z 20006KT 18/15 A2964 RMK A01 T01760151  RH  085%=      5-min Rain = 0
KWA1 250226Z 20007KT 18/15 A2964 RMK A01 T01760152  RH  086%=      5-min Rain = 0
KWA1 250227Z 19007KT 18/15 A2964 RMK A01 T01750152  RH  086%=      5-min Rain = 0
KWA1 250228Z 19006KT 18/15 A2964 RMK A01 T01750151  RH  086%=      5-min Rain = 0
KWA1 250229Z 19006KT 18/15 A2964 RMK A01 T01750150  RH  085%=      5-min Rain = 0
KWA1 250230Z 19005KT 18/15 A2964 RMK A01 T01750149  RH  084%=      5-min Rain = 0
KWA1 250231Z 20003KT 18/15 A2964 RMK A01 T01760151  RH  085%=      5-min Rain = 0
KWA1 250232Z 21003KT 18/15 A2963 RMK A01 T01760151  RH  085%=      5-min Rain = 0
KWA1 250233Z 21003KT 18/15 A2963 RMK A01 T01760150  RH  085%=      5-min Rain = 0
KWA1 250234Z 22002KT 18/15 A2963 RMK A01 T01750150  RH  085%=      5-min Rain = 0
KWA1 250235Z 23001KT 18/15 A2963 RMK A01 T01750151  RH  086%=      5-min Rain = 0
KWA1 250236Z 23003KT 18/15 A2963 RMK A01 T01750150  RH  085%=      5-min Rain = 0
KWA1 250237Z 23003KT 18/15 A2963 RMK A01 T01750148  RH  084%=      5-min Rain = 0
KWA1 250238Z 23004KT 18/15 A2964 RMK A01 T01750148  RH  084%=      5-min Rain = 0
KWA1 250239Z 22005KT 18/15 A2964 RMK A01 T01750147  RH  084%=      5-min Rain = 0
KWA1 250240Z 22005KT 18/15 A2963 RMK A01 T01750147  RH  084%=      5-min Rain = 0
KWA1 250241Z 22005KT 18/15 A2963 RMK A01 T01750148  RH  084%=      5-min Rain = 0
KWA1 250242Z 23004KT 18/15 A2963 RMK A01 T01750148  RH  084%=      5-min Rain = 0
KWA1 250243Z 23004KT 18/15 A2964 RMK A01 T01750149  RH  085%=      5-min Rain = 0
KWA1 250244Z 22004KT 17/15 A2964 RMK A01 T01740150  RH  086%=      5-min Rain = 0
KWA1 250245Z 22004KT 17/15 A2964 RMK A01 T01740150  RH  086%=      5-min Rain = 0
KWA1 250246Z 21004KT 17/15 A2964 RMK A01 T01740149  RH  085%=      5-min Rain = 0
KWA1 250247Z 21004KT 17/15 A2965 RMK A01 T01740149  RH  085%=      5-min Rain = 0
KWA1 250248Z 21003KT 17/15 A2965 RMK A01 T01740149  RH  086%=      5-min Rain = 0
KWA1 250249Z 20003KT 17/15 A2965 RMK A01 T01740150  RH  086%=      5-min Rain = 0
KWA1 250250Z 19002KT 17/15 A2966 RMK A01 T01740151  RH  087%=      5-min Rain = 0
KWA1 250251Z 18002KT 17/15 A2966 RMK A01 T01740151  RH  086%=      5-min Rain = 0
KWA1 250252Z 15002KT 17/15 A2966 RMK A01 T01740152  RH  087%=      5-min Rain = 0
KWA1 250253Z 12002KT 17/15 A2967 RMK A01 T01740152  RH  087%=      5-min Rain = 0
KWA1 250254Z 10003KT 17/15 A2967 RMK A01 T01730154  RH  088%=      5-min Rain = 0
KWA1 250255Z 10004KT 17/15 A2967 RMK A01 T01730154  RH  089%=      5-min Rain = 0
KWA1 250256Z 10004KT 17/16 A2967 RMK A01 T01730155  RH  089%=      5-min Rain = 0
KWA1 250257Z 11004KT 17/15 A2967 RMK A01 T01730154  RH  088%=      5-min Rain = 0
KWA1 250258Z 11003KT 17/15 A2968 RMK A01 T01740153  RH  087%=      5-min Rain = 0
KWA1 250259Z 10003KT 17/15 A2968 RMK A01 T01740151  RH  086%=      5-min Rain = 0
KWA1 250300Z 11003KT 17/15 A2968 RMK A01 T01740152  RH  087%=      5-min Rain = 0
KWA1 250301Z 11003KT 18/15 A2968 RMK A01 T01750153  RH  087%=      5-min Rain = 0
KWA1 250302Z 11003KT 18/15 A2968 RMK A01 T01750153  RH  087%=      5-min Rain = 0
KWA1 250303Z 11003KT 18/15 A2968 RMK A01 T01750153  RH  087%=      5-min Rain = 0
KWA1 250304Z 11003KT 18/15 A2968 RMK A01 T01750154  RH  088%=      5-min Rain = 0
KWA1 250305Z 10004KT 17/15 A2968 RMK A01 T01740154  RH  088%=      5-min Rain = 0
KWA1 250306Z 10004KT 17/15 A2969 RMK A01 T01740154  RH  088%=      5-min Rain = 0
KWA1 250307Z 11005KT 17/16 A2969 RMK A01 T01740155  RH  088%=      5-min Rain = 0
KWA1 250308Z 12005KT 17/15 A2969 RMK A01 T01740154  RH  088%=      5-min Rain = 0
KWA1 250309Z 12005KT 17/15 A2969 RMK A01 T01740153  RH  087%=      5-min Rain = 0
KWA1 250310Z 12006KT 17/15 A2969 RMK A01 T01740153  RH  087%=      5-min Rain = 0
KWA1 250311Z 11006KT 17/15 A2969 RMK A01 T01740152  RH  087%=      5-min Rain = 0
KWA1 250312Z 10005KT 18/15 A2969 RMK A01 T01750153  RH  087%=      5-min Rain = 0
KWA1 250313Z 09005KT 18/15 A297 RMK A01 T01750150  RH  085%=      5-min Rain = 0
KWA1 250314Z 08006KT 18/16 A297 RMK A01 T01760155  RH  087%=      5-min Rain = 0
KWA1 250315Z 08006KT 18/16 A297 RMK A01 T01760156  RH  088%=      5-min Rain = 0
KWA1 250316Z 09005KT 18/16 A297 RMK A01 T01760157  RH  088%=      5-min Rain = 0
KWA1 250317Z 10005KT 18/16 A2971 RMK A01 T01760155  RH  087%=      5-min Rain = 0
KWA1 250318Z 10005KT 18/15 A2971 RMK A01 T01760154  RH  087%=      5-min Rain = 0
KWA1 250319Z 09005KT 18/16 A2971 RMK A01 T01760155  RH  088%=      5-min Rain = 0
KWA1 250320Z 08006KT 18/16 A2971 RMK A01 T01760155  RH  087%=      5-min Rain = 0
KWA1 250321Z 08007KT 18/16 A2972 RMK A01 T01760155  RH  087%=      5-min Rain = 0
KWA1 250322Z 08007KT 18/16 A2972 RMK A01 T01760155  RH  087%=      5-min Rain = 0
KWA1 250323Z 07007KT 18/15 A2972 RMK A01 T01760154  RH  087%=      5-min Rain = 0
KWA1 250324Z 07007KT 18/16 A2972 RMK A01 T01760155  RH  087%=      5-min Rain = 0
KWA1 250325Z 07006KT 18/16 A2973 RMK A01 T01760155  RH  087%=      5-min Rain = 0
KWA1 250326Z 07006KT 18/15 A2973 RMK A01 T01760154  RH  087%=      5-min Rain = 0
KWA1 250327Z 06005KT 18/16 A2973 RMK A01 T01760155  RH  087%=      5-min Rain = 0
KWA1 250328Z 06006KT 18/16 A2974 RMK A01 T01760156  RH  088%=      5-min Rain = 0
KWA1 250329Z 05006KT 18/16 A2974 RMK A01 T01760155  RH  088%=      5-min Rain = 0
KWA1 250330Z 05006KT 18/16 A2975 RMK A01 T01760156  RH  088%=      5-min Rain = 0
KWA1 250331Z 05006KT 18/16 A2975 RMK A01 T01760156  RH  088%=      5-min Rain = 0
KWA1 250332Z 05007KT 18/16 A2976 RMK A01 T01760157  RH  089%=      5-min Rain = 0
KWA1 250333Z 06008KT 18/16 A2976 RMK A01 T01750156  RH  089%=      5-min Rain = 0
KWA1 250334Z 06010KT 18/16 A2977 RMK A01 T01750155  RH  088%=      5-min Rain = 0
KWA1 250335Z 07010KT 18/15 A2977 RMK A01 T01750154  RH  087%=      5-min Rain = 0
KWA1 250336Z 07010KT 18/16 A2977 RMK A01 T01760155  RH  087%=      5-min Rain = 0
KWA1 250337Z 06012KT 18/16 A2978 RMK A01 T01760156  RH  088%=      5-min Rain = 0
KWA1 250338Z 06012KT 18/16 A2978 RMK A01 T01760156  RH  088%=      5-min Rain = 0
KWA1 250339Z 07013KT 18/16 A2978 RMK A01 T01760156  RH  088%=      5-min Rain = 0
KWA1 250340Z 07012KT 18/16 A2978 RMK A01 T01770156  RH  088%=      5-min Rain = 0
KWA1 250341Z 08011KT 18/16 A2978 RMK A01 T01770157  RH  088%=      5-min Rain = 0
KWA1 250342Z 08015KT 18/16 A2978 RMK A01 T01770158  RH  088%=      5-min Rain = 0
KWA1 250343Z 07016KT 18/16 A2978 RMK A01 T01780159  RH  089%=      5-min Rain = 0
KWA1 250344Z 08017KT 18/16 A2978 RMK A01 T01770160  RH  089%=      5-min Rain = 0
KWA1 250345Z 08019KT 18/16 A2978 RMK A01 T01770160  RH  090%=      5-min Rain = 0
KWA1 250346Z 08016KT 18/16 A2978 RMK A01 T01770160  RH  090%=      5-min Rain = 0
KWA1 250347Z 09017KT 18/16 A2978 RMK A01 T01760161  RH  091%=      5-min Rain = 0
KWA1 250348Z 08018G23KT 18/16 A2979 RMK A01 T01760160  RH  090%=      5-min Rain = 0
KWA1 250349Z 09021KT 18/16 A2979 RMK A01 T01760160  RH  090%=      5-min Rain = 0
KWA1 250350Z 09018KT 18/16 A298 RMK A01 T01760160  RH  090%=      5-min Rain = 0
KWA1 250351Z 09021KT 18/16 A298 RMK A01 T01750160  RH  091%=      5-min Rain = 0
KWA1 250352Z 08020KT 18/16 A298 RMK A01 T01750160  RH  091%=      5-min Rain = 0
KWA1 250353Z 09018KT 18/16 A2979 RMK A01 T01750160  RH  091%=      5-min Rain = 0
KWA1 250354Z 09021KT 17/16 A2979 RMK A01 T01740161  RH  092%=      5-min Rain = 0
KWA1 250355Z 09022KT 17/16 A2978 RMK A01 T01740160  RH  091%=      5-min Rain = 0
KWA1 250356Z 09024KT 17/16 A2977 RMK A01 T01740159  RH  091%=      5-min Rain = 0
KWA1 250357Z 09021KT 17/16 A2977 RMK A01 T01740159  RH  091%=      5-min Rain = 0
KWA1 250358Z 09023KT 17/16 A2977 RMK A01 T01740160  RH  091%=      5-min Rain = 0
KWA1 250359Z 09023G28KT 17/16 A2977 RMK A01 T01730158  RH  091%=      5-min Rain = 0
KWA1 250400Z 09024KT 17/16 A2978 RMK A01 T01730157  RH  090%=      5-min Rain = 0
KWA1 250401Z 09023KT 17/16 A2978 RMK A01 T01740157  RH  090%=      5-min Rain = 0
KWA1 250402Z 09020KT 17/16 A2979 RMK A01 T01740157  RH  090%=      5-min Rain = 0
KWA1 250403Z 09019KT 17/16 A2979 RMK A01 T01740157  RH  090%=      5-min Rain = 0
KWA1 250404Z 09022KT 17/16 A298 RMK A01 T01740156  RH  089%=      5-min Rain = 0
KWA1 250405Z 09017KT 18/16 A298 RMK A01 T01750156  RH  089%=      5-min Rain = 0
KWA1 250406Z 09018KT 18/16 A2981 RMK A01 T01750157  RH  089%=      5-min Rain = 0
KWA1 250407Z 09016KT 18/16 A2981 RMK A01 T01750157  RH  089%=      5-min Rain = 0
KWA1 250408Z 08020G25KT 18/16 A2982 RMK A01 T01750156  RH  088%=      5-min Rain = 0
KWA1 250409Z 09017G22KT 18/16 A2982 RMK A01 T01760156  RH  088%=      5-min Rain = 0
KWA1 250410Z 09017KT 18/16 A2982 RMK A01 T01760157  RH  088%=      5-min Rain = 0
KWA1 250411Z 09020KT 18/16 A2982 RMK A01 T01760157  RH  088%=      5-min Rain = 0
KWA1 250412Z 08020KT 18/16 A2982 RMK A01 T01760156  RH  088%=      5-min Rain = 0
KWA1 250413Z 08020KT 18/16 A2982 RMK A01 T01760156  RH  088%=      5-min Rain = 0
KWA1 250414Z 08021KT 18/16 A2982 RMK A01 T01760156  RH  088%=      5-min Rain = 0
KWA1 250415Z 08022G27KT 18/16 A2982 RMK A01 T01760156  RH  088%=      5-min Rain = 0
KWA1 250416Z 08022KT 18/16 A2982 RMK A01 T01760156  RH  088%=      5-min Rain = 0
KWA1 250417Z 09022KT 18/16 A2982 RMK A01 T01760155  RH  088%=      5-min Rain = 0
KWA1 250418Z 08022KT 18/16 A2982 RMK A01 T01760156  RH  088%=      5-min Rain = 0
KWA1 250419Z 08018G23KT 18/16 A2982 RMK A01 T01760156  RH  088%=      5-min Rain = 0
KWA1 250420Z 09019KT 18/16 A2982 RMK A01 T01760157  RH  089%=      5-min Rain = 0
KWA1 250421Z 09018KT 18/16 A2982 RMK A01 T01750156  RH  089%=      5-min Rain = 0
KWA1 250422Z 09019KT 18/16 A2982 RMK A01 T01750156  RH  089%=      5-min Rain = 0
KWA1 250423Z 09017KT 18/16 A2982 RMK A01 T01750157  RH  089%=      5-min Rain = 0
KWA1 250424Z 09019KT 18/16 A2982 RMK A01 T01750157  RH  089%=      5-min Rain = 0
KWA1 250425Z 09020KT 18/16 A2982 RMK A01 T01750156  RH  089%=      5-min Rain = 0
KWA1 250426Z 09018KT 18/16 A2982 RMK A01 T01750156  RH  089%=      5-min Rain = 0
KWA1 250427Z 09019KT 18/16 A2982 RMK A01 T01750156  RH  089%=      5-min Rain = 0
KWA1 250428Z 09019KT 18/16 A2982 RMK A01 T01750157  RH  089%=      5-min Rain = 0
KWA1 250429Z 09017KT 18/16 A2982 RMK A01 T01750156  RH  089%=      5-min Rain = 0
KWA1 250430Z 09016KT 18/16 A2982 RMK A01 T01750156  RH  089%=      5-min Rain = 0
KWA1 250431Z 10015G20KT 18/16 A2983 RMK A01 T01750157  RH  089%=      5-min Rain = 0
KWA1 250432Z 09017KT 18/16 A2983 RMK A01 T01750156  RH  089%=      5-min Rain = 0
KWA1 250433Z 09015KT 18/16 A2983 RMK A01 T01750157  RH  089%=      5-min Rain = 0
KWA1 250434Z 08016KT 18/16 A2984 RMK A01 T01750158  RH  090%=      5-min Rain = 0
KWA1 250435Z 08016KT 18/16 A2984 RMK A01 T01750158  RH  089%=      5-min Rain = 0
KWA1 250436Z 07017KT 18/16 A2984 RMK A01 T01750157  RH  089%=      5-min Rain = 0
KWA1 250437Z 07018KT 18/16 A2984 RMK A01 T01750157  RH  089%=      5-min Rain = 0
KWA1 250438Z 07016KT 18/16 A2984 RMK A01 T01750158  RH  089%=      5-min Rain = 0
KWA1 250439Z 06015KT 18/16 A2984 RMK A01 T01750158  RH  090%=      5-min Rain = 0
KWA1 250440Z 06015KT 18/16 A2984 RMK A01 T01750159  RH  090%=      5-min Rain = 0
KWA1 250441Z 06016KT 18/16 A2984 RMK A01 T01750159  RH  090%=      5-min Rain = 0
KWA1 250442Z 06015KT 18/16 A2984 RMK A01 T01750159  RH  090%=      5-min Rain = 0
KWA1 250443Z 06016KT 18/16 A2984 RMK A01 T01750159  RH  090%=      5-min Rain = 0
KWA1 250444Z 06016KT 18/16 A2984 RMK A01 T01750160  RH  091%=      5-min Rain = 0
KWA1 250445Z 06018KT 18/16 A2983 RMK A01 T01750160  RH  091%=      5-min Rain = 0
KWA1 250446Z 06017KT 18/16 A2983 RMK A01 T01750160  RH  091%=      5-min Rain = 0
KWA1 250447Z 06016KT 18/16 A2983 RMK A01 T01750160  RH  091%=      5-min Rain = 0
KWA1 250448Z 06017KT 18/16 A2983 RMK A01 T01750161  RH  091%=      5-min Rain = 0
KWA1 250449Z 06018KT 18/16 A2983 RMK A01 T01750161  RH  092%=      5-min Rain = 0
KWA1 250450Z 06018KT 18/16 A2983 RMK A01 T01750161  RH  092%=      5-min Rain = 0
KWA1 250451Z 06014G19KT 18/16 A2983 RMK A01 T01750161  RH  092%=      5-min Rain = 0
KWA1 250452Z 06015KT 18/16 A2983 RMK A01 T01750162  RH  092%=      5-min Rain = 0
KWA1 250453Z 06016KT 17/16 A2984 RMK A01 T01740161  RH  092%=      5-min Rain = 0
KWA1 250454Z 07015KT 17/16 A2984 RMK A01 T01740162  RH  092%=      5-min Rain = 0
KWA1 250455Z 07017KT 17/16 A2984 RMK A01 T01740162  RH  093%=      5-min Rain = 0
KWA1 250456Z 07013KT 17/16 A2984 RMK A01 T01740162  RH  092%=      5-min Rain = 0
KWA1 250457Z 07012KT 17/16 A2984 RMK A01 T01740162  RH  093%=      5-min Rain = 0
KWA1 250458Z 07013G18KT 17/16 A2984 RMK A01 T01740163  RH  093%=      5-min Rain = 0
KWA1 250459Z 07016KT 17/16 A2984 RMK A01 T01740162  RH  093%=      5-min Rain = 0

Page generated in 0.1405 seconds.